BA1420 / G-MIDT 7700 Squawk Report (28th of November, 2021)

Aircraft A320 Reg No. G-MIDT Age 20 years old
Model A320 Jet engines 2 First flight 30-01-01
Registered 30-08-12 Rollout 01-01 Delivered 14-03-01
Construction No. 1418 Line No. N/A Series 232
ADSHEX 4008E5 Airline name British Airways Owner Aercap Holdings N.V.
Airfield based Heathrow~Gtr London~G First tracked N/A

Flight history for G-MIDT

Route Flight No Date Playback
Heathrow (LHR) - Barcelona–El Prat (BCN) BA9270 2022-01-04 11:36:00
Manchester (MAN) - Heathrow (LHR) BA1371 2022-01-04 09:29:00
Heathrow (LHR) - Manchester (MAN) BA1402 2022-01-04 06:41:00
Dyce (ABZ) - Heathrow (LHR) BA1309 2022-01-03 18:39:00
Heathrow (LHR) - Dyce (ABZ) BA1308 2022-01-03 14:36:00
Innsbruck (INN) - Heathrow (LHR) BA2891 2022-01-03 07:45:00
Heathrow (LHR) - Innsbruck (INN) BA2890 2022-01-02 18:53:00
Manchester (MAN) - Heathrow (LHR) BA1395 2022-01-02 14:42:00
Heathrow (LHR) - Manchester (MAN) BA1390 2022-01-02 13:54:00
Dyce (ABZ) - Heathrow (LHR) BA1303 2022-01-02 08:49:00
Heathrow (LHR) - Dyce (ABZ) BA1314 2022-01-01 18:40:00
Innsbruck (INN) - Heathrow (LHR) BA687 2022-01-01 17:18:00
Heathrow (LHR) - Innsbruck (INN) BA686 2022-01-01 13:41:00
Charles De Gaulle (CDG) - Heathrow (LHR) BA303 2022-01-01 07:14:00
Heathrow (LHR) - Charles De Gaulle (CDG) BA326 2022-01-01 06:14:00
Lisbon (LIS) - Heathrow (LHR) BA501 2021-12-31 09:40:00
Heathrow (LHR) - Lisbon (LIS) BA504 2021-12-31 07:13:00
Glasgow (GLA) - Heathrow (LHR) BA1487 2021-12-30 19:08:00
Gatwick (LGW) - Glasgow (GLA) BA2512 2021-12-30 13:19:00
Heathrow (LHR) - Gatwick (LGW) BA9250 2021-12-24 08:48:00
Time Lat Lon Altitude Heading Speed Vertical Rate
2021-11-28 19:29:53 GMT 54.614552 -5.871839 0 154 0 0
2021-11-28 19:29:35 GMT 54.614563 -5.871818 0 154 0 0
2021-11-28 19:29:20 GMT 54.614632 -5.871859 0 154 3 0
2021-11-28 19:28:07 GMT 54.616867 -5.870382 0 213 10 0
2021-11-28 19:27:58 GMT 54.617191 -5.869991 0 194 9 0
2021-11-28 19:27:52 GMT 54.617390 -5.869904 0 163 9 0
2021-11-28 19:27:42 GMT 54.617764 -5.870299 0 123 11 0
2021-11-28 19:27:32 GMT 54.618004 -5.870920 0 123 11 0
2021-11-28 19:27:22 GMT 54.618275 -5.871547 0 151 11 0
2021-11-28 19:27:12 GMT 54.618748 -5.871728 0 202 12 0
2021-11-28 19:27:02 GMT 54.619217 -5.871235 0 213 15 0
2021-11-28 19:26:52 GMT 54.619915 -5.870395 0 213 19 0
2021-11-28 19:26:42 GMT 54.620544 -5.869628 0 213 17 0
2021-11-28 19:26:32 GMT 54.621174 -5.868863 0 216 15 0
2021-11-28 19:26:22 GMT 54.621677 -5.868254 0 213 14 0
2021-11-28 19:26:05 GMT 54.622444 -5.867345 0 216 11 0
2021-11-28 19:25:54 GMT 54.622822 -5.866841 0 213 8 0
2021-11-28 19:25:51 GMT 54.622902 -5.866740 0 205 7 0
2021-11-28 19:25:39 GMT 54.623108 -5.866497 0 135 4 0
2021-11-28 19:25:30 GMT 54.623245 -5.866533 0 64 3 0
2021-11-28 19:25:20 GMT 54.623257 -5.866740 0 8 4 0
2021-11-28 19:25:11 GMT 54.623035 -5.866762 0 14 8 0
2021-11-28 19:25:00 GMT 54.622543 -5.867178 0 33 22 0
2021-11-28 19:24:51 GMT 54.621475 -5.868468 0 36 49 0
2021-11-28 19:24:41 GMT 54.618530 -5.872031 0 35 111 -128
2021-11-28 19:24:31 GMT 54.613953 -5.877524 0 34 132 -256
2021-11-28 19:24:21 GMT 54.603607 -5.889884 800 35 124 -704
2021-11-28 19:24:10 GMT 54.603607 -5.889884 275 34 129 -704
2021-11-28 19:23:59 GMT 54.598343 -5.896265 400 35 126 -640
2021-11-28 19:23:55 GMT 54.596416 -5.898493 425 34 125 -768
2021-11-28 19:23:46 GMT 54.591797 -5.903940 550 34 125 -768
2021-11-28 19:23:41 GMT 54.589737 -5.906363 600 34 125 -768
2021-11-28 19:23:38 GMT 54.587997 -5.908463 650 34 125 -768
2021-11-28 19:23:33 GMT 54.585991 -5.910894 700 35 124 -704
2021-11-28 19:23:30 GMT 54.584084 -5.913225 750 34 125 -640
2021-11-28 19:23:27 GMT 54.582825 -5.914684 875 34 125 -704
2021-11-28 19:23:23 GMT 54.581242 -5.916637 800 34 124 -640
2021-11-28 19:23:20 GMT 54.579845 -5.918218 875 34 125 -704
2021-11-28 19:23:17 GMT 54.578064 -5.920419 875 34 125 -704
2021-11-28 19:23:13 GMT 54.576004 -5.922843 925 34 125 -768
2021-11-28 19:23:10 GMT 54.574863 -5.924211 1,225 34 149 -896
2021-11-28 19:23:03 GMT 54.571514 -5.928206 1,050 34 126 -768
2021-11-28 19:22:57 GMT 54.568680 -5.931648 1,125 34 126 -768
2021-11-28 19:22:54 GMT 54.567276 -5.933283 1,175 35 127 -704
2021-11-28 19:22:50 GMT 54.565155 -5.935848 1,200 34 126 -640
2021-11-28 19:22:47 GMT 54.564011 -5.937222 1,250 34 125 -576
2021-11-28 19:22:44 GMT 54.562592 -5.938918 1,275 34 126 -512
2021-11-28 19:22:40 GMT 54.560349 -5.941584 1,300 34 126 -512
2021-11-28 19:22:37 GMT 54.558945 -5.943271 1,350 34 126 -640
2021-11-28 19:22:34 GMT 54.557785 -5.944654 1,375 34 127 -704
2021-11-28 19:22:25 GMT 54.552933 -5.950389 1,500 34 130 -896
2021-11-28 19:22:20 GMT 54.550892 -5.952759 1,750 34 130 -832
2021-11-28 19:22:17 GMT 54.548813 -5.955236 1,625 34 131 -704
2021-11-28 19:22:14 GMT 54.547630 -5.956587 1,650 34 133 -576
2021-11-28 19:22:04 GMT 54.542404 -5.962830 1,750 34 143 -832
2021-11-28 19:21:54 GMT 54.536819 -5.969534 2,350 34 147 -896
2021-11-28 19:21:49 GMT 54.534317 -5.972484 1,975 34 148 -896
2021-11-28 19:21:46 GMT 54.531876 -5.975432 2,025 34 148 -960
2021-11-28 19:21:43 GMT 54.531006 -5.976401 2,050 34 148 -960
2021-11-28 19:21:38 GMT 54.528122 -5.979875 2,175 34 148 -896
2021-11-28 19:21:34 GMT 54.525604 -5.982863 2,350 34 150 -832
2021-11-28 19:21:29 GMT 54.522911 -5.986051 2,250 34 149 -896
2021-11-28 19:21:23 GMT 54.519379 -5.990215 2,375 34 150 -768
2021-11-28 19:21:20 GMT 54.517593 -5.992315 2,375 34 151 -768
2021-11-28 19:21:18 GMT 54.516533 -5.993625 2,400 34 151 -768
2021-11-28 19:21:17 GMT 54.515884 -5.994374 2,425 34 151 -768
2021-11-28 19:21:14 GMT 54.514206 -5.996354 2,450 34 152 -768
2021-11-28 19:21:12 GMT 54.512901 -5.997869 2,475 34 152 -768
2021-11-28 19:21:11 GMT 54.512440 -5.998369 2,500 34 152 -704
2021-11-28 19:21:10 GMT 54.511879 -5.999118 2,500 34 152 -704
2021-11-28 19:21:09 GMT 54.511227 -5.999867 2,525 34 152 -640
2021-11-28 19:21:08 GMT 54.510132 -6.001120 2,550 34 152 -576
2021-11-28 19:21:06 GMT 54.509537 -6.001847 2,550 34 151 -512
2021-11-28 19:21:05 GMT 54.508438 -6.003140 2,575 34 151 -384
2021-11-28 19:21:02 GMT 54.507111 -6.004675 2,575 33 151 -192
2021-11-28 19:21:00 GMT 54.505920 -6.005967 2,575 33 151 -64
2021-11-28 19:20:59 GMT 54.505409 -6.006608 2,575 34 151 192
2021-11-28 19:20:57 GMT 54.503677 -6.008633 2,550 34 152 320
2021-11-28 19:20:54 GMT 54.501846 -6.010733 2,525 34 157 320
2021-11-28 19:20:52 GMT 54.501312 -6.011436 2,525 35 160 320
2021-11-28 19:20:51 GMT 54.500706 -6.012102 2,525 35 160 256
2021-11-28 19:20:49 GMT 54.499374 -6.013722 2,525 34 164 -64
2021-11-28 19:20:48 GMT 54.499008 -6.014207 2,525 33 165 -256
2021-11-28 19:20:47 GMT 54.497681 -6.015742 2,525 33 166 -384
2021-11-28 19:20:45 GMT 54.497040 -6.016469 2,525 31 167 -384
2021-11-28 19:20:44 GMT 54.496307 -6.017196 2,550 30 167 -320
2021-11-28 19:20:42 GMT 54.494980 -6.018569 2,550 29 167 -320
2021-11-28 19:20:41 GMT 54.494339 -6.019296 2,550 28 168 -256
2021-11-28 19:20:40 GMT 54.493073 -6.020341 2,575 25 168 -256
2021-11-28 19:20:38 GMT 54.492462 -6.020912 2,575 21 167 -256
2021-11-28 19:20:36 GMT 54.490746 -6.022089 2,600 19 167 -320
2021-11-28 19:20:35 GMT 54.490002 -6.022589 2,600 17 167 -256
2021-11-28 19:20:33 GMT 54.487747 -6.023578 2,600 10 168 -256
2021-11-28 19:20:31 GMT 54.487019 -6.023754 2,600 8 168 -256
2021-11-28 19:20:30 GMT 54.484726 -6.024224 2,625 1 169 -256
2021-11-28 19:20:28 GMT 54.484726 -6.024224 2,625 359 169 -320
2021-11-28 19:20:27 GMT 54.483154 -6.024170 2,625 357 170 -320
2021-11-28 19:20:25 GMT 54.482300 -6.024143 2,650 356 169 -320
2021-11-28 19:20:24 GMT 54.481430 -6.023981 2,650 354 169 -320
2021-11-28 19:20:22 GMT 54.480011 -6.023658 2,650 353 170 -256
2021-11-28 19:20:21 GMT 54.479233 -6.023497 2,675 353 170 -256
2021-11-28 19:20:20 GMT 54.478455 -6.023335 2,675 353 170 -256
2021-11-28 19:20:17 GMT 54.476128 -6.022838 2,675 354 170 -256
2021-11-28 19:20:15 GMT 54.474449 -6.022505 2,700 353 171 -256
2021-11-28 19:20:13 GMT 54.472961 -6.022204 2,700 353 170 -192
2021-11-28 19:20:12 GMT 54.472137 -6.022043 2,700 352 170 -192
2021-11-28 19:20:11 GMT 54.471359 -6.021881 2,700 351 171 -192
2021-11-28 19:20:10 GMT 54.469940 -6.021477 2,725 351 171 -192
2021-11-28 19:20:08 GMT 54.469070 -6.021235 2,725 350 172 -192
2021-11-28 19:20:07 GMT 54.468353 -6.021007 2,725 347 172 -192
2021-11-28 19:20:06 GMT 54.467609 -6.020674 2,725 346 173 -192
2021-11-28 19:20:04 GMT 54.465794 -6.019925 2,725 342 174 -192
2021-11-28 19:20:03 GMT 54.465050 -6.019509 2,725 340 175 -256
2021-11-28 19:20:01 GMT 54.463531 -6.018569 2,750 335 177 -320
2021-11-28 19:20:00 GMT 54.462627 -6.017844 2,750 332 179 -384
2021-11-28 19:19:59 GMT 54.461884 -6.017179 2,750 330 180 -384
2021-11-28 19:19:57 GMT 54.460579 -6.015930 2,775 325 182 -320
2021-11-28 19:19:56 GMT 54.459835 -6.015015 2,775 322 183 -320
2021-11-28 19:19:55 GMT 54.459133 -6.014099 2,775 320 185 -384
2021-11-28 19:19:53 GMT 54.457809 -6.012107 2,800 315 188 -384
2021-11-28 19:19:52 GMT 54.457504 -6.011602 2,800 313 189 -448
2021-11-28 19:19:51 GMT 54.456757 -6.010329 2,800 313 189 -448
2021-11-28 19:19:49 GMT 54.455566 -6.007906 2,825 307 192 -512
2021-11-28 19:19:48 GMT 54.455017 -6.006694 2,825 305 193 -512
2021-11-28 19:19:47 GMT 54.454529 -6.005610 2,825 305 193 -512
2021-11-28 19:19:45 GMT 54.453598 -6.003140 2,850 303 195 -448
2021-11-28 19:19:43 GMT 54.452618 -6.000533 2,850 303 195 -448
2021-11-28 19:19:42 GMT 54.452042 -5.998939 2,875 302 196 -448
2021-11-28 19:19:41 GMT 54.451584 -5.997647 2,875 303 198 -448
2021-11-28 19:19:40 GMT 54.450714 -5.995223 2,900 302 198 -512
2021-11-28 19:19:37 GMT 54.449982 -5.993204 2,900 303 199 -512
2021-11-28 19:19:36 GMT 54.449036 -5.990628 2,925 302 200 -576
2021-11-28 19:19:34 GMT 54.447556 -5.986579 2,950 303 201 -704
2021-11-28 19:19:32 GMT 54.446594 -5.983914 2,975 303 202 -768
2021-11-28 19:19:30 GMT 54.446053 -5.982555 2,975 303 203 -768
2021-11-28 19:19:29 GMT 54.445129 -5.979955 3,000 303 203 -896
2021-11-28 19:19:27 GMT 54.444580 -5.978501 3,025 303 203 -896
2021-11-28 19:19:26 GMT 54.444077 -5.977128 3,050 303 203 -896
2021-11-28 19:19:25 GMT 54.443214 -5.974815 3,075 303 203 -960
2021-11-28 19:19:23 GMT 54.442657 -5.973250 3,075 303 203 -1024
2021-11-28 19:19:22 GMT 54.441605 -5.970423 3,125 303 203 -1088
2021-11-28 19:19:20 GMT 54.441074 -5.968905 3,150 303 203 -1088
2021-11-28 19:19:18 GMT 54.440098 -5.966325 3,175 303 203 -1088
2021-11-28 19:19:15 GMT 54.438976 -5.963163 3,225 303 203 -1088
2021-11-28 19:19:14 GMT 54.438492 -5.961941 3,225 303 203 -1024
2021-11-28 19:19:12 GMT 54.437439 -5.959114 3,275 303 203 -1024
2021-11-28 19:19:10 GMT 54.436512 -5.956504 3,300 303 202 -896
2021-11-28 19:19:09 GMT 54.436047 -5.955339 3,325 303 202 -768
2021-11-28 19:19:07 GMT 54.435013 -5.952490 3,350 303 202 -704
2021-11-28 19:19:05 GMT 54.433548 -5.948531 3,375 303 201 -576
2021-11-28 19:19:02 GMT 54.432507 -5.945851 3,400 303 201 -384
2021-11-28 19:19:00 GMT 54.431297 -5.942605 3,425 303 201 -320
2021-11-28 19:18:59 GMT 54.431076 -5.941988 3,425 303 201 -256
2021-11-28 19:18:57 GMT 54.429474 -5.937787 3,425 303 201 -256
2021-11-28 19:18:55 GMT 54.427734 -5.933102 3,450 303 200 -192
2021-11-28 19:18:53 GMT 54.427734 -5.933102 3,450 303 199 -128
2021-11-28 19:18:52 GMT 54.426773 -5.930598 3,450 303 199 -64
2021-11-28 19:18:50 GMT 54.426365 -5.929371 3,450 303 198 0
2021-11-28 19:18:49 GMT 54.425850 -5.928040 3,450 303 198 -64
2021-11-28 19:18:47 GMT 54.424805 -5.925104 3,450 302 196 -256
2021-11-28 19:18:46 GMT 54.424484 -5.924377 3,450 301 197 -320
2021-11-28 19:18:45 GMT 54.423382 -5.921131 3,450 300 198 -320
2021-11-28 19:18:43 GMT 54.422974 -5.919934 3,475 300 198 -320
2021-11-28 19:18:41 GMT 54.420311 -5.910228 3,500 294 203 -448
2021-11-28 19:18:37 GMT 54.420311 -5.910228 3,500 287 205 -576
2021-11-28 19:18:34 GMT 54.419102 -5.900574 3,550 278 210 -704
2021-11-28 19:18:31 GMT 54.419102 -5.900574 3,625 265 217 -896
2021-11-28 19:18:28 GMT 54.419006 -5.896495 3,625 265 217 -896
2021-11-28 19:18:25 GMT 54.419220 -5.891015 3,650 261 218 -1024
2021-11-28 19:18:21 GMT 54.419952 -5.884390 3,725 255 221 -1024
2021-11-28 19:18:18 GMT 54.420822 -5.879267 3,775 253 222 -1024
2021-11-28 19:18:15 GMT 54.421803 -5.873940 3,825 253 223 -1024
2021-11-28 19:18:11 GMT 54.423248 -5.866215 3,975 253 223 -1024
2021-11-28 19:18:08 GMT 54.424026 -5.861933 3,975 253 224 -960
2021-11-28 19:18:04 GMT 54.424988 -5.856763 3,975 253 224 -960
2021-11-28 19:18:03 GMT 54.425491 -5.854016 4,025 253 224 -960
2021-11-28 19:18:01 GMT 54.426498 -5.848766 4,075 253 224 -896
2021-11-28 19:17:59 GMT 54.426781 -5.847223 4,075 253 225 -896
2021-11-28 19:17:58 GMT 54.427109 -5.845392 4,100 253 225 -832
2021-11-28 19:17:56 GMT 54.427711 -5.842313 4,125 253 226 -832
2021-11-28 19:17:55 GMT 54.428040 -5.840565 4,125 253 227 -768
2021-11-28 19:17:54 GMT 54.428642 -5.837319 4,150 253 228 -704
2021-11-28 19:17:52 GMT 54.428970 -5.835655 4,175 253 228 -704
2021-11-28 19:17:51 GMT 54.429947 -5.830245 4,200 252 229 -640
2021-11-28 19:17:49 GMT 54.429947 -5.830245 4,200 252 229 -640
2021-11-28 19:17:48 GMT 54.430252 -5.828732 4,225 253 230 -640
2021-11-28 19:17:47 GMT 54.430969 -5.824918 4,225 253 231 -576
2021-11-28 19:17:45 GMT 54.431297 -5.823170 4,250 253 232 -576
2021-11-28 19:17:44 GMT 54.431576 -5.821589 4,250 253 232 -576
2021-11-28 19:17:43 GMT 54.432312 -5.817907 4,275 253 233 -576
2021-11-28 19:17:41 GMT 54.432602 -5.816179 4,275 253 233 -576
2021-11-28 19:17:40 GMT 54.432972 -5.814431 4,300 253 234 -576
2021-11-28 19:17:38 GMT 54.433578 -5.811185 4,300 252 235 -576
2021-11-28 19:17:36 GMT 54.434235 -5.807648 4,325 253 236 -576
2021-11-28 19:17:35 GMT 54.434601 -5.805692 4,350 253 236 -512
2021-11-28 19:17:34 GMT 54.434967 -5.803770 4,350 252 237 -512
2021-11-28 19:17:33 GMT 54.435673 -5.800199 4,375 252 238 -512
2021-11-28 19:17:31 GMT 54.436001 -5.798368 4,375 253 239 -512
2021-11-28 19:17:30 GMT 54.436661 -5.794723 4,400 252 240 -512
2021-11-28 19:17:28 GMT 54.437027 -5.792945 4,400 252 241 -512
2021-11-28 19:17:27 GMT 54.437675 -5.789462 4,400 252 243 -512
2021-11-28 19:17:25 GMT 54.438034 -5.787614 4,425 252 244 -512
2021-11-28 19:17:24 GMT 54.438793 -5.783802 4,425 252 245 -512
2021-11-28 19:17:22 GMT 54.439224 -5.781555 4,450 252 246 -512
2021-11-28 19:17:21 GMT 54.440235 -5.776145 4,475 252 247 -512
2021-11-28 19:17:19 GMT 54.440235 -5.776145 4,475 252 248 -448
2021-11-28 19:17:18 GMT 54.440609 -5.774148 4,475 252 248 -448
2021-11-28 19:17:16 GMT 54.441353 -5.770402 4,500 252 250 -512
2021-11-28 19:17:15 GMT 54.441727 -5.768322 4,500 252 251 -576
2021-11-28 19:17:14 GMT 54.442429 -5.764672 4,525 252 252 -640
2021-11-28 19:17:12 GMT 54.442749 -5.762995 4,525 252 252 -640
2021-11-28 19:17:11 GMT 54.443069 -5.761279 4,550 252 253 -640
2021-11-28 19:17:10 GMT 54.443447 -5.759333 4,550 252 253 -640
2021-11-28 19:17:07 GMT 54.444672 -5.752797 4,575 253 256 -640
2021-11-28 19:17:05 GMT 54.445404 -5.749179 4,600 252 257 -640
2021-11-28 19:17:04 GMT 54.445770 -5.747223 4,600 252 257 -640
2021-11-28 19:17:03 GMT 54.446503 -5.743345 4,625 253 259 -704
2021-11-28 19:17:01 GMT 54.446823 -5.741568 4,650 253 259 -704
2021-11-28 19:16:59 GMT 54.447590 -5.737443 4,675 252 260 -768
2021-11-28 19:16:57 GMT 54.448708 -5.731784 4,700 252 263 -768
2021-11-28 19:16:55 GMT 54.449081 -5.729786 4,725 252 264 -768
2021-11-28 19:16:54 GMT 54.449524 -5.727351 4,725 252 265 -704
2021-11-28 19:16:52 GMT 54.450302 -5.723392 4,750 253 265 -704
2021-11-28 19:16:51 GMT 54.450665 -5.721380 4,775 252 266 -704
2021-11-28 19:16:50 GMT 54.451401 -5.717576 4,800 252 267 -640
2021-11-28 19:16:48 GMT 54.451778 -5.715554 4,800 252 268 -640
2021-11-28 19:16:46 GMT 54.452545 -5.711517 4,825 252 269 -640
2021-11-28 19:16:45 GMT 54.452991 -5.709312 4,825 252 270 -640
2021-11-28 19:16:44 GMT 54.453323 -5.707478 4,850 252 270 -640
2021-11-28 19:16:42 GMT 54.454109 -5.703402 4,875 252 271 -640
2021-11-28 19:16:40 GMT 54.454853 -5.699324 4,875 253 272 -704
2021-11-28 19:16:39 GMT 54.455338 -5.696815 4,900 253 273 -768
2021-11-28 19:16:38 GMT 54.455692 -5.694996 4,925 252 273 -768
2021-11-28 19:16:37 GMT 54.456482 -5.690835 4,950 252 274 -768
2021-11-28 19:16:35 GMT 54.456848 -5.688737 4,950 252 274 -704
2021-11-28 19:16:34 GMT 54.457272 -5.686507 4,975 252 274 -640
2021-11-28 19:16:33 GMT 54.457924 -5.683178 5,000 252 274 -576
2021-11-28 19:16:30 GMT 54.458771 -5.678639 5,025 253 274 -384
2021-11-28 19:16:29 GMT 54.459507 -5.674688 5,025 253 274 -192
2021-11-28 19:16:27 GMT 54.459869 -5.672823 5,025 253 274 0
2021-11-28 19:16:26 GMT 54.460346 -5.670360 5,025 253 274 0
2021-11-28 19:16:24 GMT 54.461060 -5.666441 5,025 253 273 -64
2021-11-28 19:16:23 GMT 54.461472 -5.664341 5,025 253 273 -64
2021-11-28 19:16:21 GMT 54.462208 -5.660206 5,025 253 272 0
2021-11-28 19:16:20 GMT 54.462627 -5.658125 5,025 253 272 0
2021-11-28 19:16:18 GMT 54.463417 -5.653797 5,025 253 272 0
2021-11-28 19:16:16 GMT 54.464165 -5.649719 5,025 253 271 0
2021-11-28 19:16:15 GMT 54.464535 -5.647638 5,025 253 271 0
2021-11-28 19:16:13 GMT 54.465271 -5.643499 5,025 253 271 0
2021-11-28 19:16:11 GMT 54.465958 -5.639864 5,025 253 270 0
2021-11-28 19:16:10 GMT 54.466305 -5.637984 5,025 253 270 64
2021-11-28 19:16:09 GMT 54.466862 -5.634904 5,025 253 269 64
2021-11-28 19:16:07 GMT 54.467377 -5.631866 5,025 253 269 64
2021-11-28 19:16:06 GMT 54.467842 -5.629411 5,025 253 269 64
2021-11-28 19:16:05 GMT 54.468246 -5.627181 5,025 253 269 0
2021-11-28 19:16:03 GMT 54.469070 -5.622415 5,025 254 269 -64
2021-11-28 19:16:01 GMT 54.469437 -5.620395 5,025 254 269 0
2021-11-28 19:16:00 GMT 54.469711 -5.618780 5,025 254 269 -64
2021-11-28 19:15:59 GMT 54.470215 -5.616114 5,025 253 269 -64
2021-11-28 19:15:57 GMT 54.470856 -5.612398 5,025 253 269 -64
2021-11-28 19:15:55 GMT 54.471954 -5.606097 5,025 254 270 -64
2021-11-28 19:15:53 GMT 54.472309 -5.604193 5,025 254 270 -64
2021-11-28 19:15:51 GMT 54.473419 -5.598019 5,050 253 271 -128
2021-11-28 19:15:50 GMT 54.474197 -5.593737 5,050 253 271 -192
2021-11-28 19:15:48 GMT 54.474564 -5.591718 5,050 253 271 0
2021-11-28 19:15:47 GMT 54.474930 -5.589618 5,050 253 271 0
2021-11-28 19:15:45 GMT 54.475616 -5.585740 5,050 253 272 0
2021-11-28 19:15:43 GMT 54.476212 -5.582428 5,050 253 272 -64
2021-11-28 19:15:41 GMT 54.476852 -5.578954 5,050 253 272 64
2021-11-28 19:15:40 GMT 54.477989 -5.572732 5,050 253 272 0
2021-11-28 19:15:38 GMT 54.477989 -5.572732 5,050 253 272 0
2021-11-28 19:15:37 GMT 54.478779 -5.568653 5,050 253 273 0
2021-11-28 19:15:35 GMT 54.479095 -5.566756 5,050 253 274 64
2021-11-28 19:15:33 GMT 54.479942 -5.562245 5,050 252 274 0
2021-11-28 19:15:32 GMT 54.480362 -5.560164 5,050 252 274 -128
2021-11-28 19:15:31 GMT 54.480698 -5.558274 5,050 252 274 -128
2021-11-28 19:15:28 GMT 54.481842 -5.552296 5,050 253 275 -384
2021-11-28 19:15:26 GMT 54.482456 -5.548928 5,050 253 276 -384
2021-11-28 19:15:25 GMT 54.483078 -5.545834 5,075 252 277 -448
2021-11-28 19:15:24 GMT 54.484039 -5.540583 5,075 252 277 -640
2021-11-28 19:15:22 GMT 54.484226 -5.539523 5,100 252 277 -704
2021-11-28 19:15:21 GMT 54.484646 -5.537442 5,100 252 277 -768
2021-11-28 19:15:20 GMT 54.485485 -5.533031 5,125 252 277 -704
2021-11-28 19:15:18 GMT 54.485950 -5.530534 5,150 252 277 -640
2021-11-28 19:15:17 GMT 54.486328 -5.528627 5,150 252 277 -640
2021-11-28 19:15:15 GMT 54.487061 -5.524669 5,175 252 276 -704
2021-11-28 19:15:13 GMT 54.487812 -5.520713 5,200 252 277 -768
2021-11-28 19:15:12 GMT 54.488277 -5.518383 5,200 252 277 -832
2021-11-28 19:15:11 GMT 54.488651 -5.516302 5,225 252 277 -832
2021-11-28 19:15:09 GMT 54.489487 -5.512140 5,250 252 277 -832
2021-11-28 19:15:08 GMT 54.489906 -5.509810 5,275 252 277 -832
2021-11-28 19:15:07 GMT 54.490326 -5.507729 5,275 252 277 -896
2021-11-28 19:15:05 GMT 54.491135 -5.503585 5,300 252 277 -896
2021-11-28 19:15:03 GMT 54.492325 -5.497365 5,350 252 277 -960
2021-11-28 19:15:01 GMT 54.492783 -5.495022 5,375 252 277 -896
2021-11-28 19:15:00 GMT 54.493118 -5.493164 5,375 252 277 -832
2021-11-28 19:14:58 GMT 54.493912 -5.489169 5,400 252 278 -832
2021-11-28 19:14:57 GMT 54.494282 -5.487088 5,425 252 278 -832
2021-11-28 19:14:56 GMT 54.495167 -5.482677 5,450 252 278 -832
2021-11-28 19:14:54 GMT 54.495575 -5.480401 5,475 252 278 -832
2021-11-28 19:14:53 GMT 54.495941 -5.478704 5,500 252 277 -896
2021-11-28 19:14:50 GMT 54.497681 -5.469777 5,550 252 275 -768
2021-11-28 19:14:48 GMT 54.498055 -5.467696 5,575 252 273 -704
2021-11-28 19:14:46 GMT 54.498825 -5.463759 5,575 252 272 -768
2021-11-28 19:14:45 GMT 54.499310 -5.461370 5,600 252 271 -768
2021-11-28 19:14:44 GMT 54.499695 -5.459478 5,625 252 271 -832
2021-11-28 19:14:42 GMT 54.500427 -5.455843 5,625 252 270 -832
2021-11-28 19:14:41 GMT 54.500885 -5.453581 5,650 252 270 -768
2021-11-28 19:14:40 GMT 54.502121 -5.447280 5,675 252 270 -768
2021-11-28 19:14:38 GMT 54.502121 -5.447280 5,675 252 270 -768
2021-11-28 19:14:37 GMT 54.502533 -5.445260 5,700 252 270 -768
2021-11-28 19:14:36 GMT 54.503357 -5.441221 5,725 252 270 -832
2021-11-28 19:14:34 GMT 54.503826 -5.438732 5,750 252 270 -832
2021-11-28 19:14:33 GMT 54.504181 -5.436940 5,750 252 270 -832
2021-11-28 19:14:32 GMT 54.504570 -5.435070 5,775 252 270 -832
2021-11-28 19:14:30 GMT 54.505463 -5.430639 5,800 252 271 -832
2021-11-28 19:14:29 GMT 54.505920 -5.428377 5,800 252 271 -832
2021-11-28 19:14:27 GMT 54.506664 -5.424500 5,825 252 271 -832
2021-11-28 19:14:25 GMT 54.507202 -5.421834 5,850 252 272 -832
2021-11-28 19:14:24 GMT 54.507595 -5.419839 5,875 252 272 -832
2021-11-28 19:14:23 GMT 54.509041 -5.412681 5,925 251 272 -832
2021-11-28 19:14:21 GMT 54.509041 -5.412681 5,925 251 272 -832
2021-11-28 19:14:19 GMT 54.509785 -5.408936 5,925 251 272 -768
2021-11-28 19:14:18 GMT 54.510269 -5.406485 5,950 252 273 -704
2021-11-28 19:14:16 GMT 54.511040 -5.402610 5,975 252 273 -640
2021-11-28 19:14:15 GMT 54.511414 -5.400750 5,975 252 273 -640
2021-11-28 19:14:13 GMT 54.512066 -5.397450 6,000 252 273 -576
2021-11-28 19:14:12 GMT 54.512466 -5.395580 6,025 252 273 -384
2021-11-28 19:14:10 GMT 54.513428 -5.390652 6,025 252 273 -256
2021-11-28 19:14:09 GMT 54.513882 -5.388378 6,025 252 273 -192
2021-11-28 19:14:07 GMT 54.514709 -5.384270 6,025 252 273 64
2021-11-28 19:14:06 GMT 54.515697 -5.379389 6,025 252 273 0
2021-11-28 19:14:04 GMT 54.516113 -5.377308 6,025 252 273 0
2021-11-28 19:14:03 GMT 54.517418 -5.370900 6,025 251 274 64
2021-11-28 19:14:01 GMT 54.517418 -5.370900 6,025 251 274 64
2021-11-28 19:13:59 GMT 54.518909 -5.363326 6,025 251 274 0
2021-11-28 19:13:57 GMT 54.518909 -5.363326 6,025 251 274 0
2021-11-28 19:13:56 GMT 54.519840 -5.358831 6,025 251 274 0
2021-11-28 19:13:54 GMT 54.520248 -5.356724 6,025 251 274 0
2021-11-28 19:13:52 GMT 54.520844 -5.353896 6,025 251 274 0
2021-11-28 19:13:50 GMT 54.521576 -5.350180 6,025 251 274 -64
2021-11-28 19:13:49 GMT 54.522217 -5.347111 6,025 251 274 -64
2021-11-28 19:13:48 GMT 54.522400 -5.346014 6,025 251 274 -64
2021-11-28 19:13:46 GMT 54.523239 -5.341936 6,025 251 274 -64
2021-11-28 19:13:45 GMT 54.523727 -5.339436 6,025 251 274 -128
2021-11-28 19:13:44 GMT 54.524643 -5.334912 6,050 251 274 -64
2021-11-28 19:13:42 GMT 54.525101 -5.332651 6,050 252 273 -64
2021-11-28 19:13:41 GMT 54.525471 -5.330783 6,050 252 272 0
2021-11-28 19:13:38 GMT 54.526775 -5.324457 6,050 252 271 64
2021-11-28 19:13:35 GMT 54.527615 -5.319963 6,050 252 271 64
2021-11-28 19:13:34 GMT 54.528217 -5.316883 6,025 252 271 128
2021-11-28 19:13:33 GMT 54.528580 -5.315040 6,025 253 271 64
2021-11-28 19:13:32 GMT 54.529083 -5.312213 6,025 253 271 64
2021-11-28 19:13:30 GMT 54.529724 -5.308658 6,025 254 271 0
2021-11-28 19:13:29 GMT 54.530083 -5.306396 6,025 261 269 64
2021-11-28 19:13:27 GMT 54.530914 -5.300984 6,025 261 269 64
2021-11-28 19:13:25 GMT 54.531464 -5.296783 6,025 261 269 64
2021-11-28 19:13:24 GMT 54.531666 -5.294828 6,025 263 268 0
2021-11-28 19:13:22 GMT 54.531921 -5.291694 6,025 264 268 0
2021-11-28 19:13:21 GMT 54.532059 -5.289352 6,025 266 266 -64
2021-11-28 19:13:20 GMT 54.532150 -5.287251 6,025 268 266 -128
2021-11-28 19:13:18 GMT 54.532177 -5.282759 6,050 272 265 -64
2021-11-28 19:13:17 GMT 54.532127 -5.280512 6,050 276 264 -64
2021-11-28 19:13:16 GMT 54.532059 -5.278608 6,050 276 264 -64
2021-11-28 19:13:13 GMT 54.531509 -5.271741 6,050 287 261 -64
2021-11-28 19:13:12 GMT 54.531246 -5.269526 6,050 287 261 -64
2021-11-28 19:13:11 GMT 54.530968 -5.267528 6,050 287 261 -64
2021-11-28 19:13:09 GMT 54.530453 -5.264698 6,050 289 261 -64
2021-11-28 19:13:06 GMT 54.529289 -5.259039 6,050 294 260 -64
2021-11-28 19:13:03 GMT 54.527481 -5.252757 6,050 302 259 0
2021-11-28 19:13:02 GMT 54.526871 -5.250965 6,050 304 259 64
2021-11-28 19:13:01 GMT 54.525604 -5.247507 6,050 307 260 128
2021-11-28 19:12:58 GMT 54.524216 -5.244307 6,050 311 260 128
2021-11-28 19:12:56 GMT 54.522587 -5.241061 6,025 313 261 64
2021-11-28 19:12:55 GMT 54.521793 -5.239480 6,025 316 262 64
2021-11-28 19:12:54 GMT 54.520210 -5.236900 6,025 319 263 0
2021-11-28 19:12:51 GMT 54.518417 -5.234097 6,025 321 266 64
2021-11-28 19:12:49 GMT 54.516312 -5.231189 6,025 321 269 128
2021-11-28 19:12:48 GMT 54.515369 -5.229825 6,000 321 269 128
2021-11-28 19:12:47 GMT 54.513649 -5.227411 6,000 321 270 64
2021-11-28 19:12:45 GMT 54.512669 -5.225997 6,000 320 272 64
2021-11-28 19:12:43 GMT 54.510773 -5.223191 6,000 317 275 -64
2021-11-28 19:12:42 GMT 54.508991 -5.220337 6,000 316 277 -64
2021-11-28 19:12:39 GMT 54.504616 -5.212180 6,025 311 281 -192
2021-11-28 19:12:36 GMT 54.504616 -5.212180 6,025 310 281 -128
2021-11-28 19:12:34 GMT 54.502396 -5.207520 6,050 306 282 -64
2021-11-28 19:12:31 GMT 54.499695 -5.201138 6,050 306 282 64
2021-11-28 19:12:30 GMT 54.499695 -5.201138 6,050 306 282 64
2021-11-28 19:12:29 GMT 54.498798 -5.198947 6,050 306 282 128
2021-11-28 19:12:27 GMT 54.497169 -5.194869 6,050 305 282 128
2021-11-28 19:12:25 GMT 54.495586 -5.191040 6,025 305 282 64
2021-11-28 19:12:23 GMT 54.492920 -5.184416 6,025 305 282 0
2021-11-28 19:12:21 GMT 54.492920 -5.184416 6,025 305 282 0
2021-11-28 19:12:20 GMT 54.492092 -5.182384 6,025 305 282 0
2021-11-28 19:12:19 GMT 54.489853 -5.176903 6,025 305 282 0
2021-11-28 19:12:17 GMT 54.489853 -5.176903 6,025 305 282 0
2021-11-28 19:12:16 GMT 54.489120 -5.175045 6,025 305 282 0
2021-11-28 19:12:14 GMT 54.488297 -5.173026 6,025 305 282 0
2021-11-28 19:12:13 GMT 54.487564 -5.171168 6,025 305 284 0
2021-11-28 19:12:11 GMT 54.485905 -5.167153 6,025 305 284 -64
2021-11-28 19:12:09 GMT 54.484451 -5.163574 6,025 306 284 -64
2021-11-28 19:12:08 GMT 54.483627 -5.161555 6,025 306 285 -64
2021-11-28 19:12:07 GMT 54.482830 -5.159496 6,050 306 285 -64
2021-11-28 19:12:06 GMT 54.482117 -5.157839 6,050 306 285 -64
2021-11-28 19:12:04 GMT 54.480515 -5.153961 6,050 306 285 0
2021-11-28 19:12:03 GMT 54.479782 -5.152103 6,050 306 286 0
2021-11-28 19:12:01 GMT 54.477859 -5.147499 6,050 306 286 64
2021-11-28 19:11:58 GMT 54.475525 -5.141763 6,025 306 286 128
2021-11-28 19:11:57 GMT 54.474884 -5.140228 6,025 306 286 128
2021-11-28 19:11:55 GMT 54.473473 -5.136691 6,025 306 286 128
2021-11-28 19:11:52 GMT 54.470901 -5.130615 6,025 306 287 64
2021-11-28 19:11:50 GMT 54.469471 -5.127036 6,025 306 287 -64
2021-11-28 19:11:48 GMT 54.468399 -5.124456 6,025 306 287 -128
2021-11-28 19:11:47 GMT 54.466553 -5.119952 6,025 306 287 -128
2021-11-28 19:11:44 GMT 54.465225 -5.116802 6,025 306 288 -64
2021-11-28 19:11:43 GMT 54.463715 -5.113086 6,025 306 288 -64
2021-11-28 19:11:41 GMT 54.462936 -5.111228 6,025 306 288 0
2021-11-28 19:11:40 GMT 54.461834 -5.108559 6,025 306 288 64
2021-11-28 19:11:39 GMT 54.460419 -5.105007 6,025 306 288 64
2021-11-28 19:11:36 GMT 54.458717 -5.100902 6,025 306 288 128
2021-11-28 19:11:35 GMT 54.457855 -5.098868 6,025 306 288 128
2021-11-28 19:11:34 GMT 54.457180 -5.097240 6,025 306 288 128
2021-11-28 19:11:32 GMT 54.455612 -5.093456 6,025 306 289 64
2021-11-28 19:11:30 GMT 54.454010 -5.089578 6,025 306 288 64
2021-11-28 19:11:29 GMT 54.452385 -5.085588 6,025 306 288 0
2021-11-28 19:11:27 GMT 54.451546 -5.083590 6,025 306 288 0
2021-11-28 19:11:24 GMT 54.448940 -5.077182 6,025 306 289 -64
2021-11-28 19:11:21 GMT 54.447235 -5.073018 6,025 306 289 -128
2021-11-28 19:11:18 GMT 54.444939 -5.067444 6,025 306 289 -64
2021-11-28 19:11:17 GMT 54.444260 -5.065747 6,025 306 289 -64
2021-11-28 19:11:14 GMT 54.442425 -5.061202 6,025 306 289 -64
2021-11-28 19:11:13 GMT 54.441029 -5.057872 6,025 306 289 0
2021-11-28 19:11:11 GMT 54.439453 -5.054115 6,025 306 289 0
2021-11-28 19:11:10 GMT 54.438675 -5.052257 6,050 306 289 0
2021-11-28 19:11:09 GMT 54.437302 -5.048864 6,025 306 289 64
2021-11-28 19:11:07 GMT 54.436432 -5.046764 6,025 306 289 64
2021-11-28 19:11:06 GMT 54.435627 -5.044722 6,025 306 289 64
2021-11-28 19:11:04 GMT 54.434052 -5.040947 6,025 306 289 64
2021-11-28 19:11:03 GMT 54.433273 -5.039089 6,025 306 290 64
2021-11-28 19:11:02 GMT 54.432449 -5.036989 6,025 306 290 0
2021-11-28 19:11:01 GMT 54.431763 -5.035317 6,025 306 290 0
2021-11-28 19:10:57 GMT 54.428738 -5.027910 6,025 306 290 0
2021-11-28 19:10:56 GMT 54.427944 -5.026079 6,025 306 291 0
2021-11-28 19:10:54 GMT 54.426819 -5.023256 6,025 306 291 0
2021-11-28 19:10:53 GMT 54.425243 -5.019420 6,025 306 291 0
2021-11-28 19:10:52 GMT 54.424454 -5.017589 6,025 306 291 0
2021-11-28 19:10:50 GMT 54.423058 -5.014177 6,025 306 291 0
2021-11-28 19:10:48 GMT 54.420822 -5.008684 6,025 306 291 0
2021-11-28 19:10:46 GMT 54.420044 -5.006777 6,025 306 291 0
2021-11-28 19:10:45 GMT 54.419193 -5.004772 6,025 306 291 0
2021-11-28 19:10:43 GMT 54.417797 -5.001359 6,025 306 291 -64
2021-11-28 19:10:41 GMT 54.416306 -4.997781 6,025 306 291 -64
2021-11-28 19:10:39 GMT 54.414909 -4.994368 6,025 306 291 -64
2021-11-28 19:10:38 GMT 54.412956 -4.989624 6,025 306 291 -64
2021-11-28 19:10:35 GMT 54.411942 -4.987227 6,025 306 291 -64
2021-11-28 19:10:33 GMT 54.409058 -4.980199 6,050 306 291 -64
2021-11-28 19:10:30 GMT 54.406677 -4.974383 6,050 306 290 -192
2021-11-28 19:10:27 GMT 54.405506 -4.971563 6,050 306 289 -256
2021-11-28 19:10:26 GMT 54.403198 -4.965982 6,050 306 289 -384
2021-11-28 19:10:24 GMT 54.401550 -4.962024 6,075 306 289 -512
2021-11-28 19:10:22 GMT 54.401550 -4.962024 6,075 306 289 -576
2021-11-28 19:10:21 GMT 54.400852 -4.960327 6,075 306 289 -832
2021-11-28 19:10:20 GMT 54.398254 -4.954026 6,125 306 289 -896
2021-11-28 19:10:18 GMT 54.398254 -4.954026 6,125 306 289 -960
2021-11-28 19:10:16 GMT 54.397064 -4.951199 6,150 306 289 -1088
2021-11-28 19:10:15 GMT 54.396057 -4.948841 6,175 306 289 -1152
2021-11-28 19:10:14 GMT 54.395218 -4.946761 6,200 306 289 -1152
2021-11-28 19:10:12 GMT 54.393906 -4.943605 6,225 306 289 -1216
2021-11-28 19:10:11 GMT 54.392754 -4.940768 6,275 306 289 -1216
2021-11-28 19:10:10 GMT 54.391960 -4.938937 6,275 306 289 -1216
2021-11-28 19:10:08 GMT 54.390747 -4.935931 6,325 306 288 -1152
2021-11-28 19:10:07 GMT 54.389648 -4.933346 6,350 306 288 -1152
2021-11-28 19:10:05 GMT 54.388702 -4.931114 6,375 306 288 -1152
2021-11-28 19:10:03 GMT 54.386559 -4.925870 6,475 306 287 -1152
2021-11-28 19:10:00 GMT 54.384521 -4.921067 6,475 306 287 -1152
2021-11-28 19:09:59 GMT 54.383068 -4.917547 6,500 306 287 -1152
2021-11-28 19:09:57 GMT 54.382324 -4.915655 6,525 306 286 -1152
2021-11-28 19:09:55 GMT 54.381161 -4.912886 6,600 306 286 -1216
2021-11-28 19:09:53 GMT 54.379391 -4.908641 6,600 306 286 -1152
2021-11-28 19:09:50 GMT 54.377392 -4.903897 6,650 306 285 -1152
2021-11-28 19:09:48 GMT 54.375759 -4.900069 6,675 306 284 -1152
2021-11-28 19:09:47 GMT 54.375015 -4.898238 6,725 306 283 -1152
2021-11-28 19:09:46 GMT 54.373489 -4.894571 6,750 306 283 -1152
2021-11-28 19:09:44 GMT 54.372780 -4.892911 6,750 306 283 -1152
2021-11-28 19:09:42 GMT 54.370926 -4.888351 6,825 306 282 -1088
2021-11-28 19:09:41 GMT 54.369987 -4.886169 6,850 306 282 -1088
2021-11-28 19:09:38 GMT 54.367661 -4.880510 6,900 306 282 -1216
2021-11-28 19:09:37 GMT 54.366871 -4.878679 6,925 306 282 -1216
2021-11-28 19:09:36 GMT 54.364609 -4.873244 6,975 306 282 -1216
2021-11-28 19:09:34 GMT 54.364609 -4.873244 6,975 306 283 -1280
2021-11-28 19:09:31 GMT 54.362503 -4.868155 7,025 306 283 -1280
2021-11-28 19:09:29 GMT 54.360817 -4.864197 7,075 306 283 -1280
2021-11-28 19:09:27 GMT 54.359299 -4.860562 7,125 306 283 -1280
2021-11-28 19:09:25 GMT 54.357513 -4.856373 7,175 306 284 -1280
2021-11-28 19:09:24 GMT 54.356735 -4.854503 7,200 306 284 -1280
2021-11-28 19:09:23 GMT 54.355324 -4.851046 7,250 306 284 -1216
2021-11-28 19:09:21 GMT 54.354446 -4.849010 7,275 306 284 -1216
2021-11-28 19:09:20 GMT 54.353695 -4.847218 7,275 306 284 -1216
2021-11-28 19:09:18 GMT 54.352020 -4.843223 7,325 306 284 -1088
2021-11-28 19:09:16 GMT 54.351135 -4.841142 7,350 306 284 -1024
2021-11-28 19:09:14 GMT 54.349411 -4.836973 7,425 306 283 -960
2021-11-28 19:09:12 GMT 54.346062 -4.828991 7,450 306 283 -832
2021-11-28 19:09:09 GMT 54.346062 -4.828991 7,450 306 283 -832
2021-11-28 19:09:08 GMT 54.345291 -4.827118 7,500 306 282 -768
2021-11-28 19:09:06 GMT 54.343826 -4.823664 7,500 306 282 -640
2021-11-28 19:09:05 GMT 54.342911 -4.821544 7,525 306 282 -576
2021-11-28 19:09:03 GMT 54.341499 -4.818087 7,525 306 282 -640
2021-11-28 19:09:02 GMT 54.340576 -4.815889 7,525 306 283 -704
2021-11-28 19:09:01 GMT 54.339729 -4.813926 7,550 306 283 -704
2021-11-28 19:08:59 GMT 54.337818 -4.809348 7,600 306 285 -768
2021-11-28 19:08:56 GMT 54.335865 -4.804604 7,600 306 285 -768
2021-11-28 19:08:55 GMT 54.335026 -4.802524 7,625 306 287 -768
2021-11-28 19:08:53 GMT 54.333443 -4.798861 7,650 306 288 -832
2021-11-28 19:08:51 GMT 54.332001 -4.795283 7,675 306 290 -832
2021-11-28 19:08:50 GMT 54.331284 -4.793674 7,700 306 291 -896
2021-11-28 19:08:48 GMT 54.329395 -4.789124 7,750 306 293 -896
2021-11-28 19:08:47 GMT 54.328995 -4.788181 7,725 306 293 -896
2021-11-28 19:08:45 GMT 54.327114 -4.783714 7,750 306 295 -832
2021-11-28 19:08:44 GMT 54.326321 -4.781799 7,775 306 296 -832
2021-11-28 19:08:42 GMT 54.325287 -4.779295 7,775 306 296 -832
2021-11-28 19:08:40 GMT 54.323204 -4.774309 7,825 306 298 -832
2021-11-28 19:08:39 GMT 54.322495 -4.772590 7,825 306 299 -832
2021-11-28 19:08:36 GMT 54.318687 -4.763489 7,900 306 302 -768
2021-11-28 19:08:34 GMT 54.318687 -4.763489 7,950 306 303 -768
2021-11-28 19:08:31 GMT 54.315903 -4.756838 7,950 306 305 -640
2021-11-28 19:08:30 GMT 54.313938 -4.752170 7,950 306 306 -576
2021-11-28 19:08:29 GMT 54.313938 -4.752170 7,975 306 306 -448
2021-11-28 19:08:27 GMT 54.311554 -4.746417 8,000 306 305 -384
2021-11-28 19:08:24 GMT 54.309219 -4.740681 8,025 305 305 -256
2021-11-28 19:08:22 GMT 54.308395 -4.738743 8,025 305 303 -128
2021-11-28 19:08:21 GMT 54.307377 -4.736189 8,025 305 302 -128
2021-11-28 19:08:20 GMT 54.304256 -4.728532 8,025 306 301 -256
2021-11-28 19:08:17 GMT 54.304256 -4.728532 8,050 306 301 -576
2021-11-28 19:08:15 GMT 54.302948 -4.725414 8,075 306 302 -832
2021-11-28 19:08:13 GMT 54.301529 -4.721940 8,075 306 302 -896
2021-11-28 19:08:12 GMT 54.300205 -4.718794 8,075 306 304 -1088
2021-11-28 19:08:11 GMT 54.299332 -4.716689 8,125 306 305 -1152
2021-11-28 19:08:10 GMT 54.298576 -4.714883 8,125 306 306 -1216
2021-11-28 19:08:07 GMT 54.296448 -4.709742 8,225 306 308 -1472
2021-11-28 19:08:05 GMT 54.294800 -4.705784 8,250 306 309 -1600
2021-11-28 19:08:04 GMT 54.293884 -4.703603 8,300 306 309 -1728
2021-11-28 19:08:02 GMT 54.292294 -4.699818 8,325 306 310 -1856
2021-11-28 19:08:01 GMT 54.290451 -4.695444 8,400 306 311 -1984
2021-11-28 19:07:59 GMT 54.289627 -4.693424 8,425 306 311 -2048
2021-11-28 19:07:58 GMT 54.288799 -4.691495 8,475 306 312 -2176
2021-11-28 19:07:56 GMT 54.287079 -4.687500 8,550 306 312 -2368
2021-11-28 19:07:55 GMT 54.286331 -4.685669 8,575 306 312 -2432
2021-11-28 19:07:54 GMT 54.284470 -4.681258 8,675 306 311 -2560
2021-11-28 19:07:52 GMT 54.283539 -4.679126 8,725 306 311 -2816
2021-11-28 19:07:51 GMT 54.282623 -4.676945 8,775 306 311 -2880
2021-11-28 19:07:50 GMT 54.279907 -4.670521 8,925 306 310 -2880
2021-11-28 19:07:48 GMT 54.279907 -4.670521 8,925 306 310 -2752
2021-11-28 19:07:46 GMT 54.278419 -4.666942 9,000 306 310 -2624
2021-11-28 19:07:44 GMT 54.276978 -4.663535 9,075 306 310 -2560
2021-11-28 19:07:43 GMT 54.276138 -4.661596 9,125 306 311 -2560
2021-11-28 19:07:42 GMT 54.275391 -4.659773 9,150 306 311 -2560
2021-11-28 19:07:39 GMT 54.272781 -4.653573 9,300 306 311 -2752
2021-11-28 19:07:37 GMT 54.271111 -4.649640 9,400 306 310 -2752
2021-11-28 19:07:36 GMT 54.270355 -4.647845 9,525 306 310 -2752
2021-11-28 19:07:34 GMT 54.268524 -4.643450 9,525 306 310 -2688
2021-11-28 19:07:33 GMT 54.267525 -4.640997 9,575 306 310 -2560
2021-11-28 19:07:30 GMT 54.265228 -4.635446 9,700 306 311 -2368
2021-11-28 19:07:29 GMT 54.264454 -4.633645 9,725 306 311 -2176
2021-11-28 19:07:26 GMT 54.261894 -4.627425 9,850 306 312 -2048
2021-11-28 19:07:25 GMT 54.261196 -4.625810 9,875 306 313 -1920
2021-11-28 19:07:24 GMT 54.259289 -4.621124 9,925 306 314 -1792
2021-11-28 19:07:21 GMT 54.258450 -4.619105 9,950 306 314 -1728
2021-11-28 19:07:19 GMT 54.255795 -4.612885 10,050 306 316 -1344
2021-11-28 19:07:18 GMT 54.255142 -4.611269 10,075 306 317 -1152
2021-11-28 19:07:16 GMT 54.253422 -4.607149 10,100 306 319 -1216
2021-11-28 19:07:15 GMT 54.252491 -4.604887 10,125 306 319 -1216
2021-11-28 19:07:13 GMT 54.250854 -4.600996 10,150 306 321 -1280
2021-11-28 19:07:12 GMT 54.250069 -4.599152 10,175 306 321 -1408
2021-11-28 19:07:11 GMT 54.249138 -4.596890 10,200 306 323 -1408
2021-11-28 19:07:10 GMT 54.248253 -4.594789 10,225 306 324 -1472
2021-11-28 19:07:09 GMT 54.245819 -4.588989 10,325 306 324 -1664
2021-11-28 19:07:07 GMT 54.245819 -4.588989 10,325 306 325 -1792
2021-11-28 19:07:04 GMT 54.242947 -4.582026 10,425 306 329 -2048
2021-11-28 19:07:03 GMT 54.242065 -4.579965 10,450 306 329 -2048
2021-11-28 19:07:01 GMT 54.240326 -4.575649 10,525 306 332 -2240
2021-11-28 19:07:00 GMT 54.239410 -4.573530 10,575 306 332 -2304
2021-11-28 19:06:58 GMT 54.237717 -4.569449 10,625 306 334 -2432
2021-11-28 19:06:56 GMT 54.236298 -4.566075 10,675 306 336 -2560
2021-11-28 19:06:55 GMT 54.235291 -4.563642 10,750 306 337 -2688
2021-11-28 19:06:54 GMT 54.233963 -4.560376 10,875 306 339 -2880
2021-11-28 19:06:52 GMT 54.232956 -4.557992 10,875 306 341 -3072
2021-11-28 19:06:51 GMT 54.232056 -4.555853 10,950 306 341 -3072
2021-11-28 19:06:48 GMT 54.229477 -4.549674 11,250 306 347 -3840
2021-11-28 19:06:46 GMT 54.226685 -4.543004 11,250 306 347 -3840
2021-11-28 19:06:44 GMT 54.224838 -4.538565 11,375 306 347 -3840
2021-11-28 19:06:42 GMT 54.223068 -4.534293 11,500 306 349 -3904
2021-11-28 19:06:40 GMT 54.221100 -4.529663 11,625 306 351 -3904
2021-11-28 19:06:39 GMT 54.220043 -4.527175 11,700 306 352 -4032
2021-11-28 19:06:38 GMT 54.219021 -4.524671 11,775 306 352 -4032
2021-11-28 19:06:36 GMT 54.217110 -4.520228 11,900 306 352 -4224
2021-11-28 19:06:35 GMT 54.216248 -4.518127 11,975 306 353 -4288
2021-11-28 19:06:33 GMT 54.214363 -4.513684 12,125 306 353 -4480
2021-11-28 19:06:32 GMT 54.213501 -4.511614 12,200 306 353 -4608
2021-11-28 19:06:30 GMT 54.211761 -4.507533 12,325 306 354 -4864
2021-11-28 19:06:29 GMT 54.210709 -4.505022 12,425 306 355 -4992
2021-11-28 19:06:28 GMT 54.209747 -4.502747 12,500 306 355 -4992
2021-11-28 19:06:25 GMT 54.205334 -4.492358 12,850 306 355 -5248
2021-11-28 19:06:23 GMT 54.205334 -4.492358 12,900 306 355 -5312
2021-11-28 19:06:22 GMT 54.204403 -4.490096 13,000 306 355 -5440
2021-11-28 19:06:20 GMT 54.202587 -4.485734 13,175 306 353 -5696
2021-11-28 19:06:19 GMT 54.201607 -4.483472 13,350 306 353 -5760
2021-11-28 19:06:17 GMT 54.199608 -4.478787 13,450 306 353 -5696
2021-11-28 19:06:16 GMT 54.198761 -4.476693 13,750 306 354 -5632
2021-11-28 19:06:14 GMT 54.196674 -4.471759 13,750 306 353 -5568
2021-11-28 19:06:13 GMT 54.195698 -4.469497 13,850 306 353 -5568
2021-11-28 19:06:11 GMT 54.193321 -4.463842 14,200 306 353 -5312
2021-11-28 19:06:09 GMT 54.191738 -4.459965 14,200 306 353 -5248
2021-11-28 19:06:07 GMT 54.190018 -4.455845 14,450 306 354 -4864
2021-11-28 19:06:04 GMT 54.187180 -4.449071 14,600 306 356 -4672
2021-11-28 19:06:02 GMT 54.184982 -4.443813 14,750 306 356 -4544
2021-11-28 19:06:00 GMT 54.183174 -4.439446 14,925 306 357 -4416
2021-11-28 19:05:58 GMT 54.181313 -4.435084 15,050 306 358 -4288
2021-11-28 19:05:57 GMT 54.178146 -4.427490 15,200 306 359 -4288
2021-11-28 19:05:55 GMT 54.178146 -4.427490 15,300 306 360 -4544
2021-11-28 19:05:53 GMT 54.176285 -4.423096 15,450 306 360 -4736
2021-11-28 19:05:51 GMT 54.174454 -4.418780 15,600 306 360 -5120
2021-11-28 19:05:50 GMT 54.173447 -4.416425 15,700 306 360 -5312
2021-11-28 19:05:48 GMT 54.169647 -4.407479 16,000 306 360 -5312
2021-11-28 19:05:46 GMT 54.168869 -4.405675 16,075 306 360 -5248
2021-11-28 19:05:43 GMT 54.167221 -4.401751 16,250 306 361 -5184
2021-11-28 19:05:42 GMT 54.166138 -4.399217 16,350 306 361 -5120
2021-11-28 19:05:41 GMT 54.165157 -4.396874 16,400 306 361 -5056
2021-11-28 19:05:40 GMT 54.164200 -4.394610 16,500 306 361 -4992
2021-11-28 19:05:38 GMT 54.161728 -4.388803 16,725 306 362 -4736
2021-11-28 19:05:37 GMT 54.158615 -4.381426 16,900 306 363 -4672
2021-11-28 19:05:35 GMT 54.158615 -4.381426 17,025 306 363 -4608
2021-11-28 19:05:33 GMT 54.156639 -4.376759 17,050 306 364 -4608
2021-11-28 19:05:32 GMT 54.155849 -4.374901 17,200 306 365 -4544
2021-11-28 19:05:31 GMT 54.154678 -4.372088 17,275 306 365 -4480
2021-11-28 19:05:30 GMT 54.152634 -4.367146 17,550 306 366 -4288
2021-11-28 19:05:27 GMT 54.151154 -4.363691 17,550 306 369 -4096
2021-11-28 19:05:26 GMT 54.149750 -4.360361 17,600 306 369 -4096
2021-11-28 19:05:25 GMT 54.148773 -4.358018 17,700 306 369 -3840
2021-11-28 19:05:24 GMT 54.147793 -4.355675 17,775 306 371 -3840
2021-11-28 19:05:22 GMT 54.144974 -4.349016 17,925 306 372 -3712
2021-11-28 19:05:21 GMT 54.144974 -4.349016 17,950 306 373 -3776
2021-11-28 19:05:19 GMT 54.142998 -4.344204 18,075 306 374 -3840
2021-11-28 19:05:18 GMT 54.141861 -4.341561 18,150 306 375 -4032
2021-11-28 19:05:17 GMT 54.140762 -4.338893 18,225 306 377 -4160
2021-11-28 19:05:15 GMT 54.138855 -4.334349 18,300 306 377 -4352
2021-11-28 19:05:14 GMT 54.137833 -4.331925 18,450 306 378 -4544
2021-11-28 19:05:13 GMT 54.136902 -4.329744 18,500 306 378 -4608
2021-11-28 19:05:11 GMT 54.135086 -4.325382 18,700 306 379 -4800
2021-11-28 19:05:10 GMT 54.134060 -4.322959 18,725 306 380 -4928
2021-11-28 19:05:09 GMT 54.131836 -4.317627 18,900 306 380 -4928
2021-11-28 19:05:06 GMT 54.129780 -4.312780 19,025 306 380 -4992
2021-11-28 19:05:05 GMT 54.128754 -4.310357 19,150 306 381 -5056
2021-11-28 19:05:03 GMT 54.126568 -4.305267 19,325 306 381 -5120
2021-11-28 19:05:02 GMT 54.125542 -4.302844 19,425 306 381 -5120
2021-11-28 19:05:01 GMT 54.124649 -4.300598 19,500 306 382 -5184
2021-11-28 19:04:58 GMT 54.121960 -4.294281 19,725 306 382 -5312
2021-11-28 19:04:57 GMT 54.120377 -4.290646 19,825 306 382 -5376
2021-11-28 19:04:56 GMT 54.119350 -4.288222 19,950 306 382 -5440
2021-11-28 19:04:55 GMT 54.118103 -4.285296 20,050 306 383 -5440
2021-11-28 19:04:53 GMT 54.115036 -4.277919 20,275 306 383 -5376
2021-11-28 19:04:52 GMT 54.115036 -4.277919 20,325 306 383 -5248
2021-11-28 19:04:51 GMT 54.114166 -4.275957 20,400 306 383 -5248
2021-11-28 19:04:50 GMT 54.112015 -4.270857 20,575 306 384 -5120
2021-11-28 19:04:48 GMT 54.110962 -4.268424 20,675 306 384 -5120
2021-11-28 19:04:47 GMT 54.109715 -4.265442 20,775 306 385 -5184
2021-11-28 19:04:45 GMT 54.107853 -4.260999 20,925 306 385 -5312
2021-11-28 19:04:43 GMT 54.106201 -4.257124 21,075 306 386 -5440
2021-11-28 19:04:42 GMT 54.102825 -4.249286 21,325 306 386 -5568
2021-11-28 19:04:40 GMT 54.102825 -4.249286 21,350 306 386 -5632
2021-11-28 19:04:37 GMT 54.099701 -4.241900 21,650 306 386 -5824
2021-11-28 19:04:35 GMT 54.097412 -4.236485 21,875 306 386 -5952
2021-11-28 19:04:34 GMT 54.096588 -4.234523 21,950 306 386 -6016
2021-11-28 19:04:33 GMT 54.093567 -4.227382 22,200 306 385 -6080
2021-11-28 19:04:31 GMT 54.093567 -4.227382 22,325 306 385 -6016
2021-11-28 19:04:30 GMT 54.092514 -4.224949 22,325 306 385 -5952
2021-11-28 19:04:29 GMT 54.091370 -4.222203 22,450 306 385 -5824
2021-11-28 19:04:27 GMT 54.089081 -4.216867 22,650 306 385 -5632
2021-11-28 19:04:26 GMT 54.087833 -4.213903 22,775 306 385 -5632
2021-11-28 19:04:25 GMT 54.085831 -4.209255 22,950 306 386 -5568
2021-11-28 19:04:23 GMT 54.084686 -4.206508 23,050 306 386 -5440
2021-11-28 19:04:21 GMT 54.083134 -4.202836 23,175 306 386 -5376
2021-11-28 19:04:20 GMT 54.081894 -4.199916 23,275 306 386 -5184
2021-11-28 19:04:18 GMT 54.078850 -4.192738 23,500 306 386 -4480
2021-11-28 19:04:16 GMT 54.077820 -4.190264 23,575 306 386 -4288
2021-11-28 19:04:15 GMT 54.076355 -4.186811 23,675 306 386 -4096
2021-11-28 19:04:13 GMT 54.074707 -4.182887 23,775 306 385 -4096
2021-11-28 19:04:11 GMT 54.072281 -4.177316 23,900 306 385 -4160
2021-11-28 19:04:10 GMT 54.071365 -4.175119 24,000 307 384 -4352
2021-11-28 19:04:08 GMT 54.069588 -4.170927 24,125 306 383 -4480
2021-11-28 19:04:07 GMT 54.068420 -4.168261 24,200 306 383 -4672
2021-11-28 19:04:06 GMT 54.067520 -4.166016 24,275 306 381 -4736
2021-11-28 19:04:04 GMT 54.064270 -4.158561 24,500 306 381 -4992
2021-11-28 19:04:03 GMT 54.064270 -4.158561 24,525 306 380 -5120
2021-11-28 19:04:02 GMT 54.063347 -4.156386 24,625 306 380 -5184
2021-11-28 19:04:01 GMT 54.060413 -4.149358 25,075 306 377 -5184
2021-11-28 19:03:59 GMT 54.060413 -4.149358 25,075 306 376 -5120
2021-11-28 19:03:55 GMT 54.056122 -4.139335 25,350 306 373 -4800
2021-11-28 19:03:52 GMT 54.053604 -4.133371 25,500 307 372 -4736
2021-11-28 19:03:50 GMT 54.050964 -4.127224 25,625 307 370 -4736
2021-11-28 19:03:48 GMT 54.048615 -4.121835 25,875 307 367 -4544
2021-11-28 19:03:45 GMT 54.043518 -4.109937 26,525 307 367 -4544
2021-11-28 19:03:42 GMT 54.043518 -4.109937 26,150 307 365 -4480
2021-11-28 19:03:40 GMT 54.040741 -4.103472 26,400 307 364 -4352
2021-11-28 19:03:38 GMT 54.036072 -4.092643 26,800 307 362 -4160
2021-11-28 19:03:35 GMT 54.036072 -4.092643 26,800 307 361 -4160
2021-11-28 19:03:32 GMT 54.033089 -4.085783 26,950 307 358 -4160
2021-11-28 19:03:30 GMT 54.031040 -4.081017 27,100 307 358 -4160
2021-11-28 19:03:28 GMT 54.026138 -4.069728 27,300 307 357 -4096
2021-11-28 19:03:25 GMT 54.026138 -4.069728 27,425 307 355 -4032
2021-11-28 19:03:22 GMT 54.022568 -4.061410 27,675 307 353 -3712
2021-11-28 19:03:19 GMT 54.020645 -4.056937 27,775 307 353 -3712
2021-11-28 19:03:17 GMT 54.019180 -4.053563 27,875 307 352 -3648
2021-11-28 19:03:15 GMT 54.016518 -4.047331 28,050 307 351 -3200
2021-11-28 19:03:12 GMT 54.013641 -4.040615 28,175 307 351 -2880
2021-11-28 19:03:09 GMT 54.010979 -4.034406 28,350 306 352 -2240
2021-11-28 19:03:07 GMT 54.008648 -4.028993 28,425 307 352 -2176
2021-11-28 19:03:05 GMT 54.006275 -4.023420 28,500 307 353 -2112
2021-11-28 19:03:02 GMT 54.004086 -4.018250 28,575 307 353 -2112
2021-11-28 19:02:59 GMT 54.001007 -4.011108 28,700 307 354 -2112
2021-11-28 19:02:57 GMT 53.998993 -4.006400 28,825 307 355 -2176
2021-11-28 19:02:55 GMT 53.996658 -4.000985 28,850 307 355 -2176
2021-11-28 19:02:52 GMT 53.994545 -3.996035 28,925 306 355 -2304
2021-11-28 19:02:49 GMT 53.991516 -3.989087 29,050 307 356 -2240
2021-11-28 19:02:47 GMT 53.989700 -3.984820 29,125 307 356 -2240
2021-11-28 19:02:44 GMT 53.986584 -3.977616 29,275 307 356 -2304
2021-11-28 19:02:41 GMT 53.983604 -3.970588 29,400 307 356 -2496
2021-11-28 19:02:38 GMT 53.980766 -3.964045 29,475 307 357 -2560
2021-11-28 19:02:36 GMT 53.978951 -3.959763 29,525 307 357 -2560
2021-11-28 19:02:33 GMT 53.975922 -3.952735 29,700 307 357 -2560
2021-11-28 19:02:31 GMT 53.974945 -3.950474 29,725 307 357 -2304
2021-11-28 19:02:29 GMT 53.972153 -3.943930 29,875 307 357 -2304
2021-11-28 19:02:27 GMT 53.970200 -3.939383 32,475 306 361 -2048
2021-11-28 19:02:25 GMT 53.968460 -3.935303 30,000 307 358 -2112
2021-11-28 19:02:22 GMT 53.965622 -3.928711 30,150 306 359 -2048
2021-11-28 19:02:20 GMT 53.961353 -3.918726 30,225 306 360 -2048
2021-11-28 19:02:18 GMT 53.961353 -3.918726 30,250 306 360 -2048
2021-11-28 19:02:16 GMT 53.958698 -3.912506 30,350 306 361 -2048
2021-11-28 19:02:13 GMT 53.956558 -3.907523 30,425 306 361 -1984
2021-11-28 19:02:11 GMT 53.955002 -3.903835 30,475 306 362 -1984
2021-11-28 19:02:09 GMT 53.952553 -3.898046 30,550 306 363 -1920
2021-11-28 19:02:07 GMT 53.951157 -3.894815 30,625 306 364 -1920
2021-11-28 19:02:05 GMT 53.948410 -3.888375 30,700 306 364 -1920
2021-11-28 19:02:02 GMT 53.946037 -3.882859 30,750 306 365 -1920
2021-11-28 19:02:00 GMT 53.943523 -3.877043 30,850 307 366 -2048
2021-11-28 19:01:57 GMT 53.940636 -3.870338 30,950 307 367 -2176
2021-11-28 19:01:55 GMT 53.939240 -3.867107 31,025 307 367 -2304
2021-11-28 19:01:52 GMT 53.935005 -3.857413 31,275 307 368 -2560
2021-11-28 19:01:49 GMT 53.933422 -3.853697 31,250 307 368 -2688
2021-11-28 19:01:47 GMT 53.931427 -3.849060 31,300 307 368 -2752
2021-11-28 19:01:45 GMT 53.929001 -3.843438 33,725 307 358 -3328
2021-11-28 19:01:42 GMT 53.925507 -3.835359 31,600 307 367 -2752
2021-11-28 19:01:40 GMT 53.923786 -3.831401 31,675 307 367 -2688
2021-11-28 19:01:38 GMT 53.921970 -3.827200 31,825 307 369 -2496
2021-11-28 19:01:35 GMT 53.918850 -3.820011 31,950 307 369 -2368
2021-11-28 19:01:32 GMT 53.915863 -3.812962 31,950 307 369 -2368
2021-11-28 19:01:29 GMT 53.913116 -3.806684 32,075 307 369 -2432
2021-11-28 19:01:27 GMT 53.910919 -3.801583 32,200 307 370 -2624
2021-11-28 19:01:25 GMT 53.908401 -3.795698 32,300 307 370 -2752
2021-11-28 19:01:22 GMT 53.905769 -3.789637 32,400 307 370 -2880
2021-11-28 19:01:20 GMT 53.903954 -3.785436 32,525 307 369 -3008
2021-11-28 19:01:18 GMT 53.901814 -3.780589 32,625 307 369 -3136
2021-11-28 19:01:16 GMT 53.899113 -3.774288 32,775 307 369 -3328
2021-11-28 19:01:13 GMT 53.896500 -3.768232 32,925 307 367 -3584
2021-11-28 19:01:10 GMT 53.893291 -3.760798 33,100 307 367 -3648
2021-11-28 19:01:08 GMT 53.891850 -3.757567 33,175 307 366 -3520
2021-11-28 19:01:06 GMT 53.889381 -3.751831 33,325 307 365 -3328
2021-11-28 19:01:04 GMT 53.886566 -3.745396 34,375 307 359 -3520
2021-11-28 19:01:01 GMT 53.884552 -3.740845 33,600 307 364 -3264
2021-11-28 19:00:59 GMT 53.882675 -3.736450 33,650 307 364 -3264
2021-11-28 19:00:57 GMT 53.880772 -3.732120 33,750 307 364 -3264
2021-11-28 19:00:54 GMT 53.877277 -3.724123 34,000 307 362 -3392
2021-11-28 19:00:51 GMT 53.874813 -3.718468 34,150 307 361 -3520
2021-11-28 19:00:48 GMT 53.871826 -3.711652 34,325 307 360 -3584
2021-11-28 19:00:46 GMT 53.869949 -3.707336 34,400 307 359 -3520
2021-11-28 19:00:44 GMT 53.867596 -3.701908 35,375 307 363 -64
2021-11-28 19:00:41 GMT 53.865143 -3.696272 34,750 307 357 -3072
2021-11-28 19:00:39 GMT 53.862717 -3.690622 34,775 307 357 -3008
2021-11-28 19:00:37 GMT 53.860149 -3.684782 34,950 307 357 -2624
2021-11-28 19:00:34 GMT 53.857452 -3.678537 35,050 307 357 -2432
2021-11-28 19:00:31 GMT 53.854702 -3.672180 35,175 307 358 -2176
2021-11-28 19:00:29 GMT 53.853195 -3.668806 35,200 307 358 -2176
2021-11-28 19:00:27 GMT 53.850883 -3.663456 35,300 307 358 -2176
2021-11-28 19:00:25 GMT 53.848789 -3.658690 35,450 307 358 -2176
2021-11-28 19:00:22 GMT 53.846321 -3.653116 35,475 307 359 -2112
2021-11-28 19:00:20 GMT 53.843765 -3.647226 35,575 307 359 -1920
2021-11-28 19:00:18 GMT 53.841900 -3.642937 35,625 307 359 -1792
2021-11-28 19:00:16 GMT 53.840744 -3.640241 35,650 307 359 -1664
2021-11-28 19:00:14 GMT 53.837990 -3.633970 35,900 307 360 -1280
2021-11-28 19:00:11 GMT 53.835205 -3.627607 35,800 307 360 -1280
2021-11-28 19:00:09 GMT 53.833237 -3.623134 35,850 307 360 -1280
2021-11-28 19:00:07 GMT 53.831284 -3.618622 35,900 307 360 -1024
2021-11-28 19:00:05 GMT 53.829117 -3.613639 35,925 307 361 -832
2021-11-28 19:00:03 GMT 53.827236 -3.609332 35,950 307 361 -320
2021-11-28 19:00:00 GMT 53.825142 -3.604566 35,975 307 361 -384
2021-11-28 18:59:58 GMT 53.822674 -3.598911 36,000 307 361 -256
2021-11-28 18:59:56 GMT 53.820671 -3.594387 36,000 307 361 -128
2021-11-28 18:59:54 GMT 53.815739 -3.582997 36,000 307 362 0
2021-11-28 18:59:51 GMT 53.815739 -3.582997 36,000 307 361 0
2021-11-28 18:59:49 GMT 53.813324 -3.577541 36,000 307 362 0
2021-11-28 18:59:46 GMT 53.810669 -3.571420 36,000 307 362 0
2021-11-28 18:59:43 GMT 53.807079 -3.563205 36,000 307 362 0
2021-11-28 18:59:40 GMT 53.805313 -3.559178 36,000 307 362 0
2021-11-28 18:59:38 GMT 53.802841 -3.553431 36,000 307 363 0
2021-11-28 18:59:36 GMT 53.799866 -3.546622 36,000 307 363 0
2021-11-28 18:59:33 GMT 53.797348 -3.540894 36,000 307 363 0
2021-11-28 18:59:30 GMT 53.794788 -3.534932 36,000 307 363 -64
2021-11-28 18:59:28 GMT 53.792694 -3.530166 36,000 307 363 -64
2021-11-28 18:59:26 GMT 53.791397 -3.527161 36,000 307 363 -64
2021-11-28 18:59:24 GMT 53.789436 -3.522653 36,000 307 363 0
2021-11-28 18:59:22 GMT 53.786453 -3.515782 36,000 307 364 0
2021-11-28 18:59:20 GMT 53.784851 -3.512172 36,000 307 363 0
2021-11-28 18:59:18 GMT 53.783157 -3.508248 36,000 307 363 0
2021-11-28 18:59:15 GMT 53.780090 -3.501186 36,000 307 363 0
2021-11-28 18:59:13 GMT 53.777893 -3.496164 36,000 307 363 0
2021-11-28 18:59:10 GMT 53.774166 -3.487755 36,000 307 363 0
2021-11-28 18:59:07 GMT 53.769974 -3.478193 36,000 307 363 0
2021-11-28 18:59:05 GMT 53.769974 -3.478193 36,000 307 363 0
2021-11-28 18:59:02 GMT 53.767090 -3.471601 36,000 307 364 0
2021-11-28 18:58:59 GMT 53.763458 -3.463440 36,000 307 364 0
2021-11-28 18:58:56 GMT 53.760574 -3.456816 36,000 307 364 0
2021-11-28 18:58:54 GMT 53.759174 -3.453585 36,000 307 364 0
2021-11-28 18:58:51 GMT 53.756561 -3.447667 36,000 307 364 0
2021-11-28 18:58:49 GMT 53.753448 -3.440579 36,000 307 364 0
2021-11-28 18:58:47 GMT 53.751938 -3.437151 36,000 307 364 0
2021-11-28 18:58:45 GMT 53.747223 -3.426400 36,000 307 365 0
2021-11-28 18:58:43 GMT 53.747223 -3.426400 36,000 307 364 0
2021-11-28 18:58:40 GMT 53.745117 -3.421613 36,000 307 364 0
2021-11-28 18:58:37 GMT 53.742050 -3.414551 36,000 307 364 0
2021-11-28 18:58:35 GMT 53.738937 -3.407488 36,000 307 364 0
2021-11-28 18:58:32 GMT 53.734818 -3.398150 36,000 307 364 0
2021-11-28 18:58:30 GMT 53.734818 -3.398150 36,000 307 364 0
2021-11-28 18:58:28 GMT 53.733200 -3.394452 36,000 307 364 0
2021-11-28 18:58:26 GMT 53.730499 -3.388313 36,000 307 365 0
2021-11-28 18:58:24 GMT 53.725983 -3.378054 36,000 307 365 0
2021-11-28 18:58:21 GMT 53.725983 -3.378054 36,000 307 365 0
2021-11-28 18:58:19 GMT 53.723701 -3.372803 36,000 307 365 0
2021-11-28 18:58:16 GMT 53.720764 -3.366211 36,000 307 365 0
2021-11-28 18:58:14 GMT 53.716873 -3.357343 36,000 307 365 0
2021-11-28 18:58:12 GMT 53.714951 -3.353027 36,000 307 365 0
2021-11-28 18:58:10 GMT 53.714951 -3.353027 36,000 307 365 0
2021-11-28 18:58:08 GMT 53.712845 -3.348240 36,000 307 365 0
2021-11-28 18:58:06 GMT 53.710621 -3.343237 36,000 307 365 0
2021-11-28 18:58:04 GMT 53.708618 -3.338632 36,000 307 365 0
2021-11-28 18:58:02 GMT 53.706619 -3.334115 36,000 307 365 0
2021-11-28 18:57:59 GMT 53.702614 -3.324980 36,000 307 365 0
2021-11-28 18:57:56 GMT 53.700394 -3.319990 36,000 307 365 0
2021-11-28 18:57:54 GMT 53.698288 -3.315203 36,000 307 365 0
2021-11-28 18:57:51 GMT 53.695957 -3.309954 36,000 307 365 0
2021-11-28 18:57:49 GMT 53.691536 -3.299938 36,000 307 365 0
2021-11-28 18:57:47 GMT 53.691536 -3.299938 36,000 307 365 0
2021-11-28 18:57:45 GMT 53.689133 -3.294486 36,000 307 365 0
2021-11-28 18:57:42 GMT 53.686321 -3.288143 36,000 307 365 0
2021-11-28 18:57:39 GMT 53.683273 -3.281302 36,000 307 365 0
2021-11-28 18:57:37 GMT 53.679062 -3.271745 36,000 307 365 0
2021-11-28 18:57:35 GMT 53.679062 -3.271745 36,000 307 365 0
2021-11-28 18:57:32 GMT 53.676224 -3.265372 36,000 307 365 0
2021-11-28 18:57:29 GMT 53.673428 -3.258981 36,000 307 365 0
2021-11-28 18:57:27 GMT 53.671799 -3.255346 36,000 307 365 0
2021-11-28 18:57:25 GMT 53.667793 -3.246218 36,000 307 365 0
2021-11-28 18:57:23 GMT 53.667793 -3.246218 36,000 310 361 0
2021-11-28 18:57:21 GMT 53.665745 -3.241694 36,000 308 364 0
2021-11-28 18:57:19 GMT 53.663315 -3.236258 36,000 308 364 0
2021-11-28 18:57:17 GMT 53.661484 -3.232256 36,000 308 363 0
2021-11-28 18:57:15 GMT 53.658920 -3.226685 36,000 309 362 0
2021-11-28 18:57:12 GMT 53.653782 -3.215924 36,000 310 361 0
2021-11-28 18:57:10 GMT 53.653782 -3.215924 36,000 310 360 0
2021-11-28 18:57:08 GMT 53.648243 -3.204777 36,000 311 359 -64
2021-11-28 18:57:05 GMT 53.648243 -3.204777 36,000 311 359 -64
2021-11-28 18:57:02 GMT 53.645004 -3.198434 36,000 311 359 0
2021-11-28 18:56:59 GMT 53.642395 -3.193333 36,000 311 358 0
2021-11-28 18:56:57 GMT 53.640888 -3.190397 36,000 311 358 0
2021-11-28 18:56:55 GMT 53.638325 -3.185308 36,000 311 358 0
2021-11-28 18:56:53 GMT 53.635529 -3.179836 36,000 311 358 0
2021-11-28 18:56:51 GMT 53.633579 -3.176018 36,000 311 358 0
2021-11-28 18:56:49 GMT 53.631111 -3.171171 36,000 311 358 0
2021-11-28 18:56:47 GMT 53.629074 -3.167123 36,000 311 358 -64
2021-11-28 18:56:44 GMT 53.625275 -3.159746 36,000 311 359 0
2021-11-28 18:56:41 GMT 53.622684 -3.154692 36,000 311 358 -64
2021-11-28 18:56:38 GMT 53.619240 -3.147906 36,000 311 358 0
2021-11-28 18:56:35 GMT 53.616531 -3.142639 36,000 311 359 0
2021-11-28 18:56:32 GMT 53.612862 -3.135466 36,000 311 359 0
2021-11-28 18:56:29 GMT 53.609573 -3.129063 36,000 311 360 0
2021-11-28 18:56:27 GMT 53.607971 -3.125924 36,000 311 360 0
2021-11-28 18:56:25 GMT 53.604946 -3.120036 36,000 311 362 0
2021-11-28 18:56:22 GMT 53.599407 -3.109212 36,000 311 360 0
2021-11-28 18:56:20 GMT 53.599407 -3.109212 36,000 311 360 0
2021-11-28 18:56:17 GMT 53.596008 -3.102588 36,000 311 360 0
2021-11-28 18:56:14 GMT 53.593185 -3.097046 36,000 311 362 0
2021-11-28 18:56:11 GMT 53.589306 -3.089420 36,000 311 362 0
2021-11-28 18:56:08 GMT 53.586559 -3.084088 36,000 311 362 0
2021-11-28 18:56:05 GMT 53.583626 -3.078272 36,000 311 362 0
2021-11-28 18:56:02 GMT 53.579681 -3.070600 36,000 311 363 0
2021-11-28 18:55:59 GMT 53.577530 -3.066397 36,000 311 363 0
2021-11-28 18:55:57 GMT 53.571396 -3.054435 36,000 311 363 0
2021-11-28 18:55:54 GMT 53.571396 -3.054435 36,000 311 363 0
2021-11-28 18:55:51 GMT 53.567871 -3.047607 36,000 311 363 64
2021-11-28 18:55:48 GMT 53.565903 -3.043762 36,000 311 364 0
2021-11-28 18:55:46 GMT 53.563099 -3.038204 36,000 311 365 0
2021-11-28 18:55:44 GMT 53.560455 -3.033090 36,000 311 364 0
2021-11-28 18:55:41 GMT 53.558258 -3.028774 36,000 311 364 0
2021-11-28 18:55:39 GMT 53.553406 -3.019357 36,000 311 365 0
2021-11-28 18:55:37 GMT 53.553406 -3.019357 36,000 311 365 0
2021-11-28 18:55:34 GMT 53.549561 -3.011902 36,000 311 365 0
2021-11-28 18:55:31 GMT 53.546402 -3.005624 36,000 311 365 0
2021-11-28 18:55:29 GMT 53.544525 -3.002014 36,000 311 365 0
2021-11-28 18:55:27 GMT 53.538712 -2.990635 36,000 311 365 0
2021-11-28 18:55:24 GMT 53.538712 -2.990635 36,000 311 365 -64
2021-11-28 18:55:21 GMT 53.535278 -2.984044 36,000 311 365 0
2021-11-28 18:55:18 GMT 53.532532 -2.978629 36,000 311 365 -64
2021-11-28 18:55:16 GMT 53.530334 -2.974391 36,000 311 365 -64
2021-11-28 18:55:14 GMT 53.527439 -2.968813 36,000 311 365 0
2021-11-28 18:55:11 GMT 53.525253 -2.964582 36,000 311 365 0
2021-11-28 18:55:09 GMT 53.522598 -2.959442 36,000 311 365 0
2021-11-28 18:55:07 GMT 53.519432 -2.953222 36,000 311 364 0
2021-11-28 18:55:04 GMT 53.515457 -2.945592 36,000 311 363 0
2021-11-28 18:55:01 GMT 53.514359 -2.943473 36,000 311 363 0
2021-11-28 18:54:59 GMT 53.511284 -2.937469 36,000 311 363 0
2021-11-28 18:54:57 GMT 53.508408 -2.931937 36,000 311 363 0
2021-11-28 18:54:54 GMT 53.505371 -2.925998 36,000 311 363 0
2021-11-28 18:54:51 GMT 53.499847 -2.915301 36,000 311 363 0
2021-11-28 18:54:49 GMT 53.499847 -2.915301 36,000 311 363 0
2021-11-28 18:54:46 GMT 53.496780 -2.909337 36,000 311 363 0
2021-11-28 18:54:44 GMT 53.494247 -2.904510 36,000 311 363 0
2021-11-28 18:54:41 GMT 53.491425 -2.898978 36,000 311 363 0
2021-11-28 18:54:39 GMT 53.489639 -2.895525 36,000 311 363 0
2021-11-28 18:54:37 GMT 53.487915 -2.892151 36,000 311 363 0
2021-11-28 18:54:35 GMT 53.484703 -2.885931 36,000 311 363 64
2021-11-28 18:54:33 GMT 53.482544 -2.881714 36,000 311 363 0
2021-11-28 18:54:30 GMT 53.479675 -2.876156 36,000 311 363 64
2021-11-28 18:54:27 GMT 53.475861 -2.868724 36,000 311 363 64
2021-11-28 18:54:24 GMT 53.472881 -2.862989 36,000 311 363 64
2021-11-28 18:54:21 GMT 53.470039 -2.857495 36,000 311 363 0
2021-11-28 18:54:19 GMT 53.467293 -2.852164 36,000 311 363 0
2021-11-28 18:54:17 GMT 53.465515 -2.848755 36,000 311 363 0
2021-11-28 18:54:15 GMT 53.463547 -2.844910 36,000 311 363 0
2021-11-28 18:54:13 GMT 53.461258 -2.840437 36,000 311 363 -64
2021-11-28 18:54:11 GMT 53.459061 -2.836199 36,000 311 363 0
2021-11-28 18:54:09 GMT 53.456406 -2.831098 36,000 311 363 0
2021-11-28 18:54:07 GMT 53.454304 -2.827122 36,000 311 362 -64
2021-11-28 18:54:05 GMT 53.452351 -2.823244 36,000 311 362 0
2021-11-28 18:54:03 GMT 53.450134 -2.819013 36,000 311 362 -64
2021-11-28 18:54:01 GMT 53.445099 -2.809283 36,000 311 362 0
2021-11-28 18:53:59 GMT 53.445099 -2.809283 36,000 311 362 0
2021-11-28 18:53:56 GMT 53.441597 -2.802564 36,000 311 362 0
2021-11-28 18:53:53 GMT 53.438618 -2.796828 36,000 311 362 0
2021-11-28 18:53:50 GMT 53.435349 -2.790449 36,000 311 362 0
2021-11-28 18:53:47 GMT 53.431961 -2.783936 36,000 311 362 0
2021-11-28 18:53:44 GMT 53.428421 -2.777198 36,000 311 362 0
2021-11-28 18:53:41 GMT 53.426140 -2.772755 36,000 311 362 0
2021-11-28 18:53:39 GMT 53.419785 -2.760472 36,000 311 362 0
2021-11-28 18:53:36 GMT 53.419785 -2.760472 36,000 311 362 0
2021-11-28 18:53:33 GMT 53.417267 -2.755607 36,000 311 362 0
2021-11-28 18:53:31 GMT 53.414520 -2.750349 36,000 311 362 0
2021-11-28 18:53:28 GMT 53.412186 -2.745876 36,000 311 362 0
2021-11-28 18:53:26 GMT 53.409027 -2.739755 36,000 312 363 0
2021-11-28 18:53:23 GMT 53.405594 -2.733163 36,000 312 363 0
2021-11-28 18:53:20 GMT 53.402866 -2.727921 36,000 312 363 0
2021-11-28 18:53:18 GMT 53.399963 -2.722412 36,000 312 363 0
2021-11-28 18:53:15 GMT 53.397446 -2.717547 36,000 312 363 0
2021-11-28 18:53:13 GMT 53.393696 -2.710311 36,000 312 363 0
2021-11-28 18:53:10 GMT 53.391266 -2.705619 36,000 312 364 0
2021-11-28 18:53:08 GMT 53.389179 -2.701667 36,000 312 364 0
2021-11-28 18:53:06 GMT 53.387512 -2.698478 36,000 312 364 0
2021-11-28 18:53:03 GMT 53.384617 -2.692943 36,000 312 363 0
2021-11-28 18:53:01 GMT 53.381561 -2.687020 36,000 312 363 0
2021-11-28 18:52:58 GMT 53.378128 -2.680507 36,000 312 363 64
2021-11-28 18:52:56 GMT 53.376564 -2.677514 36,000 312 363 0
2021-11-28 18:52:54 GMT 53.374374 -2.673313 36,000 312 363 0
2021-11-28 18:52:52 GMT 53.368881 -2.662730 36,000 312 363 0
2021-11-28 18:52:49 GMT 53.368881 -2.662730 36,000 312 363 0
2021-11-28 18:52:47 GMT 53.366226 -2.657593 36,000 311 364 0
2021-11-28 18:52:44 GMT 53.359478 -2.644716 36,000 311 364 0
2021-11-28 18:52:41 GMT 53.359478 -2.644716 36,000 311 364 0
2021-11-28 18:52:38 GMT 53.356750 -2.639387 36,000 311 365 0
2021-11-28 18:52:36 GMT 53.354546 -2.635103 36,000 311 365 0
2021-11-28 18:52:34 GMT 53.348351 -2.623228 36,000 311 365 0
2021-11-28 18:52:31 GMT 53.348351 -2.623228 36,000 312 365 0
2021-11-28 18:52:28 GMT 53.345032 -2.616865 36,000 312 365 0
2021-11-28 18:52:26 GMT 53.343292 -2.613491 36,000 312 365 0
2021-11-28 18:52:23 GMT 53.340160 -2.607476 36,000 312 365 0
2021-11-28 18:52:21 GMT 53.337296 -2.602033 36,000 312 365 0
2021-11-28 18:52:18 GMT 53.334091 -2.595834 36,000 312 365 64
2021-11-28 18:52:16 GMT 53.331966 -2.591804 36,000 312 365 64
2021-11-28 18:52:14 GMT 53.329872 -2.587765 36,000 312 365 64
2021-11-28 18:52:11 GMT 53.326660 -2.581626 36,000 312 365 0
2021-11-28 18:52:09 GMT 53.324524 -2.577628 36,000 312 365 0
2021-11-28 18:52:07 GMT 53.321678 -2.572093 36,000 312 365 0
2021-11-28 18:52:04 GMT 53.318573 -2.566171 36,000 312 366 0
2021-11-28 18:52:01 GMT 53.315094 -2.559579 36,000 312 366 0
2021-11-28 18:51:59 GMT 53.312347 -2.554243 36,000 312 366 0
2021-11-28 18:51:56 GMT 53.307247 -2.544466 36,000 312 365 0
2021-11-28 18:51:54 GMT 53.307247 -2.544466 36,000 312 366 0
2021-11-28 18:51:51 GMT 53.303802 -2.537842 36,000 312 365 0
2021-11-28 18:51:48 GMT 53.297798 -2.526371 36,000 312 365 -64
2021-11-28 18:51:45 GMT 53.295593 -2.522147 36,000 312 365 -64
2021-11-28 18:51:43 GMT 53.295593 -2.522147 36,000 312 365 -64
2021-11-28 18:51:41 GMT 53.293167 -2.517439 36,000 312 365 0
2021-11-28 18:51:39 GMT 53.290955 -2.513203 36,000 312 365 -64
2021-11-28 18:51:37 GMT 53.288727 -2.508963 36,000 312 365 -64
2021-11-28 18:51:34 GMT 53.284946 -2.501813 36,000 312 365 0
2021-11-28 18:51:30 GMT 53.280853 -2.493977 36,000 312 365 0
2021-11-28 18:51:27 GMT 53.277512 -2.487619 36,000 312 365 0
2021-11-28 18:51:25 GMT 53.275826 -2.484445 36,000 312 365 0
2021-11-28 18:51:23 GMT 53.273075 -2.479113 36,000 312 365 0
2021-11-28 18:51:21 GMT 53.270828 -2.474906 36,000 312 365 0
2021-11-28 18:51:19 GMT 53.269501 -2.472395 36,000 312 365 0
2021-11-28 18:51:17 GMT 53.266605 -2.466835 36,000 312 365 0
2021-11-28 18:51:14 GMT 53.259483 -2.453263 36,000 312 367 0
2021-11-28 18:51:11 GMT 53.259483 -2.453263 36,000 312 367 0
2021-11-28 18:51:08 GMT 53.256592 -2.447754 36,000 312 367 0
2021-11-28 18:51:06 GMT 53.254578 -2.443987 36,000 312 367 0
2021-11-28 18:51:03 GMT 53.251709 -2.438399 36,000 312 367 0
2021-11-28 18:51:01 GMT 53.248451 -2.432260 36,000 312 367 0
2021-11-28 18:50:58 GMT 53.244873 -2.425467 36,000 312 367 0
2021-11-28 18:50:56 GMT 53.243752 -2.423374 36,000 312 367 0
2021-11-28 18:50:54 GMT 53.240631 -2.417396 36,000 312 367 64
2021-11-28 18:50:51 GMT 53.237274 -2.411028 36,000 312 367 64
2021-11-28 18:50:49 GMT 53.235489 -2.407575 36,000 312 367 64
2021-11-28 18:50:47 GMT 53.232697 -2.402318 36,000 312 367 64
2021-11-28 18:50:44 GMT 53.229034 -2.395255 36,000 312 367 0
2021-11-28 18:50:41 GMT 53.225922 -2.389284 36,000 312 365 0
2021-11-28 18:50:38 GMT 53.222443 -2.382778 36,000 312 365 0
2021-11-28 18:50:35 GMT 53.220016 -2.378069 36,000 312 365 0
2021-11-28 18:50:33 GMT 53.218006 -2.374259 36,000 312 365 0
2021-11-28 18:50:31 GMT 53.215214 -2.369008 36,000 312 365 0
2021-11-28 18:50:29 GMT 53.212887 -2.364565 36,000 312 365 0
2021-11-28 18:50:26 GMT 53.207794 -2.354841 36,000 312 364 0
2021-11-28 18:50:24 GMT 53.207794 -2.354841 36,000 312 364 64
2021-11-28 18:50:21 GMT 53.201797 -2.343541 36,000 312 363 64
2021-11-28 18:50:19 GMT 53.201797 -2.343541 36,000 312 364 64
2021-11-28 18:50:17 GMT 53.199005 -2.338283 36,000 312 363 64
2021-11-28 18:50:14 GMT 53.196129 -2.332818 36,000 312 363 0
2021-11-28 18:50:11 GMT 53.192822 -2.326517 36,000 312 364 0
2021-11-28 18:50:09 GMT 53.189713 -2.320626 36,000 312 364 0
2021-11-28 18:50:06 GMT 53.187935 -2.317227 36,000 312 364 0
2021-11-28 18:50:03 GMT 53.184723 -2.311168 36,000 312 364 0
2021-11-28 18:50:01 GMT 53.181694 -2.305513 36,000 312 364 -64
2021-11-28 18:49:59 GMT 53.179928 -2.302120 36,000 312 364 0
2021-11-28 18:49:56 GMT 53.176575 -2.295829 36,000 312 364 0
2021-11-28 18:49:54 GMT 53.171814 -2.286804 36,000 312 364 0
2021-11-28 18:49:52 GMT 53.171814 -2.286804 36,000 312 364 0
2021-11-28 18:49:50 GMT 53.169891 -2.283194 36,000 312 364 0
2021-11-28 18:49:48 GMT 53.166687 -2.277152 36,000 312 364 0
2021-11-28 18:49:45 GMT 53.163895 -2.271894 36,000 312 364 0
2021-11-28 18:49:42 GMT 53.161118 -2.266657 36,000 312 364 0
2021-11-28 18:49:40 GMT 53.155113 -2.255348 36,000 312 364 0
2021-11-28 18:49:37 GMT 53.152908 -2.251099 36,000 312 364 0
2021-11-28 18:49:35 GMT 53.152908 -2.251099 36,000 312 363 0
2021-11-28 18:49:33 GMT 53.150986 -2.247567 36,000 312 362 -64
2021-11-28 18:49:31 GMT 53.148689 -2.243150 36,000 312 362 0
2021-11-28 18:49:28 GMT 53.141846 -2.230225 36,000 312 362 -64
2021-11-28 18:49:25 GMT 53.141846 -2.230225 36,000 312 362 -64
2021-11-28 18:49:23 GMT 53.138718 -2.224339 36,000 312 362 0
2021-11-28 18:49:20 GMT 53.135971 -2.219160 36,000 312 362 0
2021-11-28 18:49:17 GMT 53.132210 -2.212049 36,000 312 362 64
2021-11-28 18:49:14 GMT 53.129379 -2.206604 36,000 312 362 64
2021-11-28 18:49:11 GMT 53.126717 -2.201628 36,000 312 361 64
2021-11-28 18:49:09 GMT 53.123318 -2.195165 36,000 312 361 0
2021-11-28 18:49:06 GMT 53.120453 -2.189732 36,000 312 361 0
2021-11-28 18:49:03 GMT 53.117569 -2.184317 36,000 312 362 0
2021-11-28 18:49:00 GMT 53.113403 -2.176392 36,000 312 362 0
2021-11-28 18:48:57 GMT 53.111496 -2.172870 36,000 312 362 0
2021-11-28 18:48:54 GMT 53.107315 -2.164934 36,000 312 362 0
2021-11-28 18:48:51 GMT 53.104568 -2.159755 36,000 312 362 0
2021-11-28 18:48:49 GMT 53.103024 -2.156875 36,000 312 362 0
2021-11-28 18:48:47 GMT 53.099899 -2.150966 36,000 312 362 0
2021-11-28 18:48:44 GMT 53.096512 -2.144531 36,000 312 362 0
2021-11-28 18:48:41 GMT 53.091431 -2.134957 36,000 312 362 0
2021-11-28 18:48:39 GMT 53.091431 -2.134957 36,000 312 362 0
2021-11-28 18:48:36 GMT 53.088318 -2.129135 36,000 312 362 0
2021-11-28 18:48:34 GMT 53.085194 -2.123265 36,000 312 362 0
2021-11-28 18:48:31 GMT 53.082447 -2.118086 36,000 312 362 0
2021-11-28 18:48:29 GMT 53.079575 -2.112656 36,000 312 362 0
2021-11-28 18:48:26 GMT 53.076370 -2.106628 36,000 312 362 0
2021-11-28 18:48:24 GMT 53.073788 -2.101842 36,000 312 363 0
2021-11-28 18:48:21 GMT 53.071041 -2.096662 36,000 312 363 0
2021-11-28 18:48:18 GMT 53.067783 -2.090620 36,000 312 363 -64
2021-11-28 18:48:16 GMT 53.065269 -2.085833 36,000 312 363 -64
2021-11-28 18:48:13 GMT 53.061825 -2.079398 36,000 312 363 -64
2021-11-28 18:48:10 GMT 53.058380 -2.072885 36,000 312 363 -64
2021-11-28 18:48:07 GMT 53.055679 -2.067947 36,000 312 359 0
2021-11-28 18:48:04 GMT 53.052704 -2.062302 36,025 312 362 0
2021-11-28 18:48:02 GMT 53.050690 -2.058563 36,025 312 363 0
2021-11-28 18:48:00 GMT 53.048355 -2.054214 36,025 312 362 0
2021-11-28 18:47:58 GMT 53.046799 -2.051315 36,000 312 361 0
2021-11-28 18:47:56 GMT 53.043484 -2.045027 36,000 312 361 0
2021-11-28 18:47:54 GMT 53.041386 -2.041103 36,000 312 361 0
2021-11-28 18:47:51 GMT 53.035263 -2.029724 36,000 312 362 0
2021-11-28 18:47:48 GMT 53.035263 -2.029724 36,000 312 362 0
2021-11-28 18:47:46 GMT 53.032608 -2.024689 36,000 312 362 0
2021-11-28 18:47:44 GMT 53.030167 -2.020150 36,000 312 362 0
2021-11-28 18:47:42 GMT 53.027939 -2.015991 36,000 312 362 0
2021-11-28 18:47:39 GMT 53.024162 -2.008929 36,000 312 362 0
2021-11-28 18:47:36 GMT 53.021255 -2.003555 36,000 312 363 0
2021-11-28 18:47:33 GMT 53.017925 -1.997314 36,000 312 363 0
2021-11-28 18:47:31 GMT 53.016155 -1.993940 36,000 312 363 0
2021-11-28 18:47:29 GMT 53.012787 -1.987762 36,000 312 363 0
2021-11-28 18:47:26 GMT 53.009918 -1.982326 36,000 312 362 0
2021-11-28 18:47:24 GMT 53.007706 -1.978149 36,000 312 361 0
2021-11-28 18:47:21 GMT 53.005051 -1.973190 36,000 312 361 0
2021-11-28 18:47:19 GMT 52.998932 -1.961844 36,000 312 360 0
2021-11-28 18:47:16 GMT 52.998932 -1.961844 36,000 312 360 0
2021-11-28 18:47:13 GMT 52.995438 -1.955261 36,000 312 359 0
2021-11-28 18:47:10 GMT 52.992462 -1.949692 36,000 312 357 64
2021-11-28 18:47:08 GMT 52.990723 -1.946411 36,000 312 357 0
2021-11-28 18:47:05 GMT 52.986874 -1.939244 36,000 312 357 64
2021-11-28 18:47:02 GMT 52.983616 -1.933123 36,000 312 355 64
2021-11-28 18:46:59 GMT 52.978168 -1.922921 36,000 312 355 0
2021-11-28 18:46:57 GMT 52.978168 -1.922921 36,000 312 355 0
2021-11-28 18:46:55 GMT 52.973560 -1.914368 36,000 312 355 0
2021-11-28 18:46:53 GMT 52.973560 -1.914368 36,000 312 355 0
2021-11-28 18:46:50 GMT 52.970768 -1.909110 36,000 312 355 0
2021-11-28 18:46:48 GMT 52.965637 -1.899567 36,000 312 356 -64
2021-11-28 18:46:45 GMT 52.965637 -1.899567 36,000 312 356 0
2021-11-28 18:46:43 GMT 52.962250 -1.893234 36,000 312 356 -64
2021-11-28 18:46:40 GMT 52.959595 -1.888393 36,000 312 356 -64
2021-11-28 18:46:38 GMT 52.956989 -1.883527 36,000 312 356 0
2021-11-28 18:46:35 GMT 52.954147 -1.878204 36,000 312 356 0
2021-11-28 18:46:32 GMT 52.950760 -1.871872 36,000 312 356 0
2021-11-28 18:46:30 GMT 52.947910 -1.866577 36,000 312 357 0
2021-11-28 18:46:27 GMT 52.945267 -1.861725 36,000 312 357 0
2021-11-28 18:46:25 GMT 52.943207 -1.857867 36,000 312 357 0
2021-11-28 18:46:23 GMT 52.941010 -1.853790 36,000 312 357 0
2021-11-28 18:46:20 GMT 52.937481 -1.847273 36,000 312 357 0
2021-11-28 18:46:18 GMT 52.935287 -1.843185 36,000 312 358 0
2021-11-28 18:46:16 GMT 52.930035 -1.833383 36,000 312 358 0
2021-11-28 18:46:13 GMT 52.930035 -1.833383 36,000 312 357 0
2021-11-28 18:46:11 GMT 52.928284 -1.830139 36,000 312 357 0
2021-11-28 18:46:08 GMT 52.924988 -1.823959 36,000 312 357 0
2021-11-28 18:46:05 GMT 52.920822 -1.816254 36,000 312 357 0
2021-11-28 18:46:02 GMT 52.918076 -1.811142 36,000 312 357 0
2021-11-28 18:46:00 GMT 52.916107 -1.807480 36,000 312 356 0
2021-11-28 18:45:58 GMT 52.912628 -1.800995 36,000 312 356 0
2021-11-28 18:45:55 GMT 52.910660 -1.797333 36,000 312 356 0
2021-11-28 18:45:53 GMT 52.908436 -1.793283 36,000 312 356 0
2021-11-28 18:45:51 GMT 52.902290 -1.781904 36,000 312 356 0
2021-11-28 18:45:48 GMT 52.902290 -1.781904 36,000 312 356 0
2021-11-28 18:45:46 GMT 52.900009 -1.777666 36,000 312 356 0
2021-11-28 18:45:43 GMT 52.896927 -1.772003 36,000 312 356 0
2021-11-28 18:45:40 GMT 52.893860 -1.766281 36,000 312 356 0
2021-11-28 18:45:38 GMT 52.891342 -1.761627 36,000 312 356 0
2021-11-28 18:45:35 GMT 52.888138 -1.755753 36,000 312 357 0
2021-11-28 18:45:32 GMT 52.885162 -1.750259 36,000 312 357 0
2021-11-28 18:45:30 GMT 52.878891 -1.738663 36,000 312 358 0
2021-11-28 18:45:27 GMT 52.878891 -1.738663 36,000 312 358 0
2021-11-28 18:45:24 GMT 52.876556 -1.734390 36,000 312 358 0
2021-11-28 18:45:22 GMT 52.871613 -1.725235 36,000 312 358 0
2021-11-28 18:45:20 GMT 52.871613 -1.725235 36,000 312 358 64
2021-11-28 18:45:17 GMT 52.868958 -1.720381 36,000 312 358 64
2021-11-28 18:45:15 GMT 52.865978 -1.714887 36,000 312 358 64
2021-11-28 18:45:12 GMT 52.862534 -1.708609 36,000 313 358 64
2021-11-28 18:45:09 GMT 52.859894 -1.703720 36,000 313 358 0
2021-11-28 18:45:07 GMT 52.857784 -1.699899 36,000 313 358 0
2021-11-28 18:45:05 GMT 52.855690 -1.695975 36,000 312 359 0
2021-11-28 18:45:02 GMT 52.851700 -1.688690 36,000 313 358 0
2021-11-28 18:45:00 GMT 52.850189 -1.685867 36,000 312 359 0
2021-11-28 18:44:58 GMT 52.847309 -1.680594 36,000 312 358 0
2021-11-28 18:44:55 GMT 52.844097 -1.674709 36,000 312 358 0
2021-11-28 18:44:52 GMT 52.841118 -1.669216 36,000 312 359 0
2021-11-28 18:44:50 GMT 52.836372 -1.660427 36,000 312 358 0
2021-11-28 18:44:47 GMT 52.836372 -1.660427 36,000 312 358 0
2021-11-28 18:44:45 GMT 52.832741 -1.653678 36,000 312 358 0
2021-11-28 18:44:42 GMT 52.829994 -1.648577 36,000 312 357 -64
2021-11-28 18:44:39 GMT 52.826889 -1.642914 36,000 312 357 -64
2021-11-28 18:44:37 GMT 52.824280 -1.638031 36,000 312 356 -64
2021-11-28 18:44:35 GMT 52.821381 -1.632804 36,000 312 356 -64
2021-11-28 18:44:32 GMT 52.818741 -1.627960 36,025 312 356 -64
2021-11-28 18:44:30 GMT 52.816586 -1.623858 36,025 312 356 -64
2021-11-28 18:44:28 GMT 52.814816 -1.620640 36,025 312 356 -64
2021-11-28 18:44:26 GMT 52.812607 -1.616592 36,025 312 356 -64
2021-11-28 18:44:24 GMT 52.809448 -1.610718 36,025 312 356 -64
2021-11-28 18:44:21 GMT 52.804916 -1.602478 36,025 312 356 -64
2021-11-28 18:44:19 GMT 52.804916 -1.602478 36,025 312 356 -64
2021-11-28 18:44:17 GMT 52.802628 -1.598206 36,025 312 356 -64
2021-11-28 18:44:15 GMT 52.799652 -1.592712 36,025 312 356 -64
2021-11-28 18:44:12 GMT 52.796265 -1.586456 36,025 312 356 -64
2021-11-28 18:44:09 GMT 52.793961 -1.582188 36,025 312 356 0
2021-11-28 18:44:07 GMT 52.791092 -1.576920 36,025 312 357 64
2021-11-28 18:44:04 GMT 52.788002 -1.571280 36,000 312 361 256
2021-11-28 18:44:01 GMT 52.781479 -1.559296 36,000 312 359 64
2021-11-28 18:43:58 GMT 52.781479 -1.559296 36,000 312 359 128
2021-11-28 18:43:56 GMT 52.779831 -1.556244 36,000 312 359 128
2021-11-28 18:43:54 GMT 52.777039 -1.551132 35,975 312 360 192
2021-11-28 18:43:51 GMT 52.774384 -1.546249 35,975 312 361 256
2021-11-28 18:43:49 GMT 52.770824 -1.539655 35,950 312 362 384
2021-11-28 18:43:46 GMT 52.768497 -1.535339 35,950 312 362 512
2021-11-28 18:43:44 GMT 52.764908 -1.528778 35,925 312 363 768
2021-11-28 18:43:41 GMT 52.762680 -1.524667 35,875 312 363 896
2021-11-28 18:43:38 GMT 52.755661 -1.511688 35,850 312 363 1088
2021-11-28 18:43:35 GMT 52.755661 -1.511688 35,475 312 363 1024
2021-11-28 18:43:32 GMT 52.748714 -1.498928 35,675 312 363 1024
2021-11-28 18:43:29 GMT 52.746338 -1.494533 35,650 312 363 896
2021-11-28 18:43:26 GMT 52.746338 -1.494533 35,650 312 364 896
2021-11-28 18:43:24 GMT 52.741608 -1.485901 35,600 312 364 896
2021-11-28 18:43:22 GMT 52.737587 -1.478524 35,500 312 364 960
2021-11-28 18:43:19 GMT 52.737587 -1.478524 35,500 312 364 960
2021-11-28 18:43:16 GMT 52.735447 -1.474601 35,475 312 364 960
2021-11-28 18:43:14 GMT 52.732498 -1.469269 35,450 312 364 960
2021-11-28 18:43:11 GMT 52.728333 -1.461639 35,400 313 363 896
2021-11-28 18:43:08 GMT 52.725540 -1.456528 35,350 313 363 960
2021-11-28 18:43:05 GMT 52.722519 -1.450958 35,275 313 363 960
2021-11-28 18:43:02 GMT 52.718685 -1.443996 35,275 313 363 1024
2021-11-28 18:42:59 GMT 52.715149 -1.437640 35,200 313 364 1024
2021-11-28 18:42:56 GMT 52.712448 -1.432696 35,150 313 364 1024
2021-11-28 18:42:54 GMT 52.709290 -1.427002 35,075 313 364 1088
2021-11-28 18:42:51 GMT 52.704906 -1.418963 35,025 313 364 1152
2021-11-28 18:42:47 GMT 52.702393 -1.414490 35,000 313 364 1152
2021-11-28 18:42:45 GMT 52.700253 -1.410566 34,975 313 364 1152
2021-11-28 18:42:43 GMT 52.695412 -1.401777 34,900 313 365 1152
2021-11-28 18:42:41 GMT 52.695412 -1.401777 34,850 313 364 1152
2021-11-28 18:42:39 GMT 52.693130 -1.397618 34,850 313 364 1152
2021-11-28 18:42:37 GMT 52.690659 -1.393127 34,775 313 365 1152
2021-11-28 18:42:34 GMT 52.686676 -1.385956 34,700 313 365 1152
2021-11-28 18:42:31 GMT 52.684525 -1.381989 34,700 313 365 1152
2021-11-28 18:42:29 GMT 52.681503 -1.376495 34,625 313 366 1152
2021-11-28 18:42:26 GMT 52.677979 -1.370087 34,600 313 366 1216
2021-11-28 18:42:24 GMT 52.676186 -1.366778 34,550 313 366 1216
2021-11-28 18:42:21 GMT 52.672230 -1.359558 34,475 313 366 1408
2021-11-28 18:42:19 GMT 52.668224 -1.352339 34,400 313 366 1472
2021-11-28 18:42:17 GMT 52.664967 -1.346375 34,300 313 366 1472
2021-11-28 18:42:15 GMT 52.664967 -1.346375 34,300 313 368 1472
2021-11-28 18:42:12 GMT 52.662689 -1.342163 34,250 313 368 1472
2021-11-28 18:42:10 GMT 52.659286 -1.336016 34,175 313 368 1344
2021-11-28 18:42:07 GMT 52.656052 -1.330185 34,125 313 368 1280
2021-11-28 18:42:04 GMT 52.652443 -1.323539 34,075 313 368 1152
2021-11-28 18:42:01 GMT 52.650021 -1.319144 34,025 313 368 1024
2021-11-28 18:41:59 GMT 52.647278 -1.314200 33,950 313 368 1024
2021-11-28 18:41:57 GMT 52.644436 -1.309021 33,925 313 368 1024
2021-11-28 18:41:54 GMT 52.641495 -1.303558 33,900 313 366 960
2021-11-28 18:41:51 GMT 52.636002 -1.293640 33,825 313 368 896
2021-11-28 18:41:49 GMT 52.636002 -1.293640 33,825 313 368 896
2021-11-28 18:41:47 GMT 52.629959 -1.282654 33,650 313 367 896
2021-11-28 18:41:44 GMT 52.629959 -1.282654 33,750 313 366 832
2021-11-28 18:41:41 GMT 52.627121 -1.277466 33,650 313 366 832
2021-11-28 18:41:39 GMT 52.623596 -1.271057 33,650 313 366 832
2021-11-28 18:41:36 GMT 52.621674 -1.267548 33,650 313 366 832
2021-11-28 18:41:34 GMT 52.618378 -1.261520 33,550 313 366 896
2021-11-28 18:41:31 GMT 52.615585 -1.256409 33,575 313 366 896
2021-11-28 18:41:29 GMT 52.613297 -1.252289 32,950 313 365 960
2021-11-28 18:41:27 GMT 52.610916 -1.247940 33,475 313 365 960
2021-11-28 18:41:24 GMT 52.607521 -1.241769 33,450 313 365 1024
2021-11-28 18:41:21 GMT 52.603180 -1.234055 33,350 313 365 960
2021-11-28 18:41:18 GMT 52.601166 -1.230316 33,350 313 365 960
2021-11-28 18:41:16 GMT 52.596069 -1.221130 33,250 313 364 960
2021-11-28 18:41:14 GMT 52.596069 -1.221130 33,300 313 364 960
2021-11-28 18:41:11 GMT 52.592995 -1.215637 33,250 313 363 960
2021-11-28 18:41:09 GMT 52.591179 -1.212341 33,200 313 363 960
2021-11-28 18:41:06 GMT 52.586758 -1.204415 33,150 313 363 1152
2021-11-28 18:41:03 GMT 52.583038 -1.197662 33,050 313 364 1280
2021-11-28 18:41:00 GMT 52.581482 -1.194839 33,050 313 364 1280
2021-11-28 18:40:58 GMT 52.578415 -1.189270 32,975 313 364 1344
2021-11-28 18:40:55 GMT 52.575394 -1.183777 32,950 313 364 1344
2021-11-28 18:40:53 GMT 52.572186 -1.178048 32,825 313 364 1472
2021-11-28 18:40:50 GMT 52.569489 -1.173172 32,825 313 365 1472
2021-11-28 18:40:48 GMT 52.566647 -1.168082 32,750 313 364 1600
2021-11-28 18:40:45 GMT 52.564461 -1.164237 32,650 314 364 1728
2021-11-28 18:40:43 GMT 52.560829 -1.158037 32,550 318 362 1600
2021-11-28 18:40:40 GMT 52.557266 -1.152191 32,500 318 362 1600
2021-11-28 18:40:37 GMT 52.553513 -1.146317 32,400 323 357 1024
2021-11-28 18:40:34 GMT 52.549667 -1.140671 32,350 320 360 1216
2021-11-28 18:40:31 GMT 52.546677 -1.136300 32,300 322 358 1024
2021-11-28 18:40:28 GMT 52.542721 -1.130964 32,275 321 359 1088
2021-11-28 18:40:26 GMT 52.539322 -1.126556 32,225 323 357 1024
2021-11-28 18:40:23 GMT 52.536854 -1.123431 32,150 324 356 1088
2021-11-28 18:40:20 GMT 52.531452 -1.116839 31,725 325 354 1280
2021-11-28 18:40:17 GMT 52.527824 -1.112680 32,000 326 353 1344
2021-11-28 18:40:14 GMT 52.521469 -1.105652 31,900 328 352 1472
2021-11-28 18:40:12 GMT 52.521469 -1.105652 31,675 328 353 1408
2021-11-28 18:40:09 GMT 52.516937 -1.100845 31,750 328 353 1600
2021-11-28 18:40:06 GMT 52.512974 -1.096671 31,775 328 353 1408
2021-11-28 18:40:03 GMT 52.509384 -1.092911 31,700 328 353 1408
2021-11-28 18:40:00 GMT 52.505402 -1.088791 31,625 328 353 1408
2021-11-28 18:39:58 GMT 52.502518 -1.085739 31,600 328 354 1408
2021-11-28 18:39:56 GMT 52.499039 -1.082153 31,350 328 354 1408
2021-11-28 18:39:53 GMT 52.490627 -1.073364 31,450 328 354 1408
2021-11-28 18:39:50 GMT 52.490627 -1.073364 31,400 328 354 1344
2021-11-28 18:39:48 GMT 52.488998 -1.071638 31,375 328 354 1344
2021-11-28 18:39:45 GMT 52.480991 -1.063320 31,275 328 354 1216
2021-11-28 18:39:43 GMT 52.480991 -1.063320 31,225 328 354 1216
2021-11-28 18:39:40 GMT 52.477386 -1.059647 31,200 328 354 1152
2021-11-28 18:39:38 GMT 52.471436 -1.053391 31,125 328 354 1024
2021-11-28 18:39:35 GMT 52.471436 -1.053391 31,100 328 354 960
2021-11-28 18:39:33 GMT 52.467861 -1.049665 31,100 328 354 960
2021-11-28 18:39:31 GMT 52.465816 -1.047546 31,050 328 352 832
2021-11-28 18:39:29 GMT 52.463348 -1.044957 31,025 328 352 768
2021-11-28 18:39:27 GMT 52.459213 -1.040649 30,975 328 350 640
2021-11-28 18:39:24 GMT 52.455620 -1.036952 30,950 328 350 640
2021-11-28 18:39:22 GMT 52.452782 -1.033970 30,925 328 350 768
2021-11-28 18:39:19 GMT 52.447987 -1.029027 30,875 328 349 896
2021-11-28 18:39:16 GMT 52.444702 -1.025620 30,850 328 349 960
2021-11-28 18:39:14 GMT 52.441315 -1.022034 30,825 328 349 1024
2021-11-28 18:39:12 GMT 52.438583 -1.019217 30,750 328 349 1024
2021-11-28 18:39:09 GMT 52.431656 -1.012039 30,675 328 348 1088
2021-11-28 18:39:07 GMT 52.431656 -1.012039 30,700 328 348 1152
2021-11-28 18:39:04 GMT 52.428246 -1.008466 30,625 328 348 1152
2021-11-28 18:39:02 GMT 52.424744 -1.004868 30,600 328 348 1152
2021-11-28 18:38:59 GMT 52.421452 -1.001482 30,550 328 348 1152
2021-11-28 18:38:57 GMT 52.416470 -0.996225 30,500 328 348 1088
2021-11-28 18:38:54 GMT 52.414143 -0.993792 30,450 328 348 1024
2021-11-28 18:38:52 GMT 52.407898 -0.987320 30,350 328 347 960
2021-11-28 18:38:49 GMT 52.407898 -0.987320 30,350 328 347 960
2021-11-28 18:38:47 GMT 52.400455 -0.979588 30,075 328 344 1024
2021-11-28 18:38:44 GMT 52.396034 -0.975037 30,275 328 346 896
2021-11-28 18:38:41 GMT 52.392914 -0.971819 30,225 328 345 896
2021-11-28 18:38:38 GMT 52.392914 -0.971819 30,175 328 344 960
2021-11-28 18:38:35 GMT 52.389282 -0.968052 30,150 328 344 1024
2021-11-28 18:38:33 GMT 52.383911 -0.962448 30,100 328 344 1152
2021-11-28 18:38:31 GMT 52.383911 -0.962448 30,025 328 343 1216
2021-11-28 18:38:28 GMT 52.380020 -0.958405 30,025 328 343 1216
2021-11-28 18:38:26 GMT 52.375626 -0.953827 29,950 328 343 1216
2021-11-28 18:38:23 GMT 52.372513 -0.950699 29,900 328 343 1216
2021-11-28 18:38:21 GMT 52.370243 -0.948277 29,800 328 343 1216
2021-11-28 18:38:18 GMT 52.367065 -0.944977 29,775 328 343 1152
2021-11-28 18:38:16 GMT 52.359055 -0.936661 29,725 328 342 1152
2021-11-28 18:38:13 GMT 52.359055 -0.936661 29,675 328 342 1152
2021-11-28 18:38:10 GMT 52.356091 -0.933681 29,675 328 342 1152
2021-11-28 18:38:08 GMT 52.352097 -0.929489 29,600 328 341 1152
2021-11-28 18:38:05 GMT 52.348755 -0.926056 29,575 328 340 1088
2021-11-28 18:38:03 GMT 52.346783 -0.924029 29,550 328 340 1088
2021-11-28 18:38:01 GMT 52.343708 -0.920890 29,425 328 340 1088
2021-11-28 18:37:59 GMT 52.340515 -0.917587 29,450 328 340 1088
2021-11-28 18:37:57 GMT 52.338261 -0.915240 29,425 328 340 1088
2021-11-28 18:37:55 GMT 52.335617 -0.912476 29,375 328 339 1024
2021-11-28 18:37:53 GMT 52.332962 -0.909805 29,350 328 339 1024
2021-11-28 18:37:51 GMT 52.330952 -0.907706 29,300 328 339 1024
2021-11-28 18:37:49 GMT 52.327286 -0.903931 29,275 328 338 1024
2021-11-28 18:37:47 GMT 52.325821 -0.902405 29,150 328 337 1024
2021-11-28 18:37:45 GMT 52.321976 -0.898438 29,225 328 337 1088
2021-11-28 18:37:43 GMT 52.319595 -0.895996 29,150 328 337 1088
2021-11-28 18:37:41 GMT 52.316849 -0.893173 29,150 328 337 1088
2021-11-28 18:37:38 GMT 52.313049 -0.889206 29,075 328 336 1088
2021-11-28 18:37:35 GMT 52.308563 -0.884635 29,050 328 334 1536
2021-11-28 18:37:33 GMT 52.306870 -0.882874 29,000 328 335 1088
2021-11-28 18:37:31 GMT 52.304745 -0.880711 28,975 328 335 1088
2021-11-28 18:37:29 GMT 52.301468 -0.877304 28,925 328 334 1088
2021-11-28 18:37:27 GMT 52.298721 -0.874481 28,900 328 334 1152
2021-11-28 18:37:25 GMT 52.291443 -0.866928 28,825 328 334 1408
2021-11-28 18:37:22 GMT 52.288033 -0.863447 28,775 328 334 1408
2021-11-28 18:37:19 GMT 52.288033 -0.863447 28,750 328 334 1472
2021-11-28 18:37:17 GMT 52.285984 -0.861328 28,225 328 334 1600
2021-11-28 18:37:15 GMT 52.282837 -0.858078 28,625 328 334 1600
2021-11-28 18:37:13 GMT 52.279980 -0.855129 28,550 328 334 1536
2021-11-28 18:37:11 GMT 52.277370 -0.852461 28,425 328 334 1472
2021-11-28 18:37:08 GMT 52.269699 -0.844498 28,425 328 333 1280
2021-11-28 18:37:05 GMT 52.265781 -0.840454 28,350 328 333 1280
2021-11-28 18:37:02 GMT 52.265781 -0.840454 28,325 328 333 1280
2021-11-28 18:36:59 GMT 52.261597 -0.836182 28,275 328 330 1216
2021-11-28 18:36:57 GMT 52.259029 -0.833548 28,175 328 332 1280
2021-11-28 18:36:55 GMT 52.256798 -0.831273 28,150 328 332 1280
2021-11-28 18:36:53 GMT 52.254234 -0.828605 28,125 328 332 1280
2021-11-28 18:36:51 GMT 52.250465 -0.824759 28,075 328 330 1216
2021-11-28 18:36:48 GMT 52.246460 -0.820679 28,000 328 330 1216
2021-11-28 18:36:46 GMT 52.243103 -0.817184 27,950 328 329 1216
2021-11-28 18:36:44 GMT 52.243103 -0.817184 27,950 328 329 1216
2021-11-28 18:36:42 GMT 52.239758 -0.813773 27,875 328 329 1344
2021-11-28 18:36:39 GMT 52.231285 -0.805062 27,800 328 329 1408
2021-11-28 18:36:36 GMT 52.231285 -0.805062 27,750 328 329 1536
2021-11-28 18:36:33 GMT 52.226028 -0.799637 27,650 328 328 1600
2021-11-28 18:36:31 GMT 52.226028 -0.799637 27,625 328 327 1600
2021-11-28 18:36:29 GMT 52.223045 -0.796587 27,600 328 327 1600
2021-11-28 18:36:26 GMT 52.220490 -0.793991 27,525 328 327 1600
2021-11-28 18:36:24 GMT 52.216667 -0.790074 27,400 328 327 1600
2021-11-28 18:36:21 GMT 52.212711 -0.785993 27,275 328 327 1600
2021-11-28 18:36:18 GMT 52.208862 -0.782013 27,275 328 327 1600
2021-11-28 18:36:16 GMT 52.206573 -0.779648 27,175 328 327 1536
2021-11-28 18:36:13 GMT 52.199661 -0.772552 27,125 328 327 1536
2021-11-28 18:36:11 GMT 52.199661 -0.772552 27,050 328 326 1408
2021-11-28 18:36:08 GMT 52.196835 -0.769671 27,025 328 326 1344
2021-11-28 18:36:06 GMT 52.193527 -0.766296 26,975 328 326 1344
2021-11-28 18:36:03 GMT 52.190094 -0.762787 26,925 328 326 1344
2021-11-28 18:36:01 GMT 52.187531 -0.760193 26,875 328 324 1344
2021-11-28 18:35:58 GMT 52.181442 -0.753937 26,750 328 324 1344
2021-11-28 18:35:56 GMT 52.181442 -0.753937 26,725 328 324 1408
2021-11-28 18:35:53 GMT 52.174725 -0.747070 26,650 328 323 1472
2021-11-28 18:35:51 GMT 52.174725 -0.747070 26,575 328 323 1472
2021-11-28 18:35:48 GMT 52.171188 -0.743408 26,575 328 322 1472
2021-11-28 18:35:46 GMT 52.169834 -0.741970 26,475 328 322 1472
2021-11-28 18:35:44 GMT 52.165928 -0.737967 26,475 328 322 1536
2021-11-28 18:35:42 GMT 52.164413 -0.736465 26,425 328 322 1536
2021-11-28 18:35:40 GMT 52.160477 -0.732422 26,350 328 322 1536
2021-11-28 18:35:37 GMT 52.157871 -0.729728 26,250 328 321 1600
2021-11-28 18:35:35 GMT 52.154068 -0.725861 26,225 328 321 1600
2021-11-28 18:35:32 GMT 52.150955 -0.722580 26,150 328 321 1600
2021-11-28 18:35:30 GMT 52.149170 -0.720825 26,000 328 321 1536
2021-11-28 18:35:28 GMT 52.144791 -0.716309 26,000 328 321 1600
2021-11-28 18:35:25 GMT 52.141533 -0.712934 25,950 328 321 1536
2021-11-28 18:35:22 GMT 52.138779 -0.710144 25,900 328 321 1472
2021-11-28 18:35:20 GMT 52.131104 -0.702340 25,775 328 319 1280
2021-11-28 18:35:17 GMT 52.131104 -0.702340 25,725 328 319 1216
2021-11-28 18:35:14 GMT 52.129257 -0.700455 25,725 328 319 1280
2021-11-28 18:35:12 GMT 52.124123 -0.695199 25,650 328 318 1216
2021-11-28 18:35:10 GMT 52.124123 -0.695199 25,625 328 317 1216
2021-11-28 18:35:08 GMT 52.119049 -0.690020 25,475 328 317 1216
2021-11-28 18:35:06 GMT 52.119049 -0.690020 25,525 328 316 1280
2021-11-28 18:35:03 GMT 52.114929 -0.685883 25,475 328 316 1344
2021-11-28 18:35:01 GMT 52.113091 -0.683977 25,475 328 316 1408
2021-11-28 18:34:59 GMT 52.109505 -0.680368 25,375 328 315 1536
2021-11-28 18:34:56 GMT 52.106552 -0.677338 25,325 328 314 1600
2021-11-28 18:34:54 GMT 52.100891 -0.671579 25,150 328 314 1728
2021-11-28 18:34:52 GMT 52.100891 -0.671579 25,175 328 314 1728
2021-11-28 18:34:50 GMT 52.098331 -0.668910 25,125 328 314 1728
2021-11-28 18:34:47 GMT 52.094376 -0.664902 25,025 328 314 1600
2021-11-28 18:34:44 GMT 52.089340 -0.659790 24,950 328 314 1536
2021-11-28 18:34:42 GMT 52.089340 -0.659790 24,800 329 313 1472
2021-11-28 18:34:40 GMT 52.086548 -0.656967 24,875 328 312 1472
2021-11-28 18:34:37 GMT 52.082748 -0.653076 24,800 328 312 1408
2021-11-28 18:34:35 GMT 52.079681 -0.649948 24,700 328 311 1472
2021-11-28 18:34:32 GMT 52.076035 -0.646232 24,675 328 311 1536
2021-11-28 18:34:30 GMT 52.073685 -0.643921 24,575 328 310 1536
2021-11-28 18:34:27 GMT 52.070774 -0.640895 24,525 328 310 1600
2021-11-28 18:34:25 GMT 52.068832 -0.638962 24,450 329 309 1600
2021-11-28 18:34:23 GMT 52.065186 -0.635245 24,400 328 309 1536
2021-11-28 18:34:20 GMT 52.061829 -0.631790 24,375 328 309 1536
2021-11-28 18:34:18 GMT 52.059505 -0.629438 24,250 328 308 1472
2021-11-28 18:34:15 GMT 52.055412 -0.625279 24,175 329 307 1472
2021-11-28 18:34:12 GMT 52.052490 -0.622406 24,150 328 306 1472
2021-11-28 18:34:10 GMT 52.049732 -0.619550 24,075 328 306 1408
2021-11-28 18:34:07 GMT 52.046265 -0.615997 24,050 329 306 1408
2021-11-28 18:34:05 GMT 52.044472 -0.614214 23,875 329 304 1344
2021-11-28 18:34:02 GMT 52.040405 -0.610046 23,950 328 305 1344
2021-11-28 18:34:00 GMT 52.037888 -0.607529 23,875 329 304 1344
2021-11-28 18:33:58 GMT 52.034180 -0.603790 23,800 328 303 1408
2021-11-28 18:33:56 GMT 52.031799 -0.601349 23,675 328 303 1472
2021-11-28 18:33:54 GMT 52.031799 -0.601349 23,725 329 302 1536
2021-11-28 18:33:52 GMT 52.028969 -0.598519 23,700 328 301 1664
2021-11-28 18:33:50 GMT 52.027084 -0.596619 23,650 328 301 1728
2021-11-28 18:33:48 GMT 52.024033 -0.593497 23,575 328 301 1856
2021-11-28 18:33:45 GMT 52.020592 -0.589966 23,475 328 301 1920
2021-11-28 18:33:42 GMT 52.014954 -0.584259 23,350 328 301 1920
2021-11-28 18:33:40 GMT 52.011978 -0.581284 23,300 328 301 1984
2021-11-28 18:33:38 GMT 52.011978 -0.581284 23,250 328 301 1984
2021-11-28 18:33:35 GMT 52.008591 -0.577774 23,075 328 301 2048
2021-11-28 18:33:32 GMT 52.005039 -0.574193 23,050 328 301 2048
2021-11-28 18:33:30 GMT 52.003410 -0.572545 23,000 328 301 2048
2021-11-28 18:33:28 GMT 51.999664 -0.568771 22,050 329 300 1984
2021-11-28 18:33:25 GMT 51.996918 -0.566025 22,800 329 300 2240
2021-11-28 18:33:22 GMT 51.993073 -0.562057 22,675 329 300 2240
2021-11-28 18:33:20 GMT 51.991169 -0.560146 22,625 328 301 2240
2021-11-28 18:33:18 GMT 51.987862 -0.556771 22,525 328 301 2240
2021-11-28 18:33:15 GMT 51.985397 -0.554339 22,400 328 301 2304
2021-11-28 18:33:12 GMT 51.982590 -0.551453 22,300 328 301 2240
2021-11-28 18:33:10 GMT 51.979156 -0.547943 22,250 328 301 2240
2021-11-28 18:33:08 GMT 51.976364 -0.545079 22,125 328 301 2176
2021-11-28 18:33:05 GMT 51.973385 -0.542097 21,825 329 300 2048
2021-11-28 18:33:02 GMT 51.969521 -0.538173 21,900 329 300 1984
2021-11-28 18:33:00 GMT 51.967163 -0.535812 21,900 329 300 1856
2021-11-28 18:32:58 GMT 51.965973 -0.534668 21,775 328 299 1792
2021-11-28 18:32:56 GMT 51.963272 -0.531921 21,800 329 299 1792
2021-11-28 18:32:54 GMT 51.960583 -0.529227 21,700 329 299 1792
2021-11-28 18:32:52 GMT 51.957649 -0.526245 21,650 329 298 1792
2021-11-28 18:32:50 GMT 51.955902 -0.524445 21,600 329 298 1792
2021-11-28 18:32:48 GMT 51.952148 -0.520706 21,500 329 296 1792
2021-11-28 18:32:45 GMT 51.949364 -0.517848 21,350 329 296 1856
2021-11-28 18:32:42 GMT 51.946247 -0.514709 21,350 328 296 1856
2021-11-28 18:32:40 GMT 51.943588 -0.512009 21,275 328 296 1856
2021-11-28 18:32:38 GMT 51.937775 -0.506134 21,200 329 295 1856
2021-11-28 18:32:35 GMT 51.937775 -0.506134 21,050 329 294 0
2021-11-28 18:32:32 GMT 51.932465 -0.500820 20,950 329 294 1920
2021-11-28 18:32:30 GMT 51.932465 -0.500820 20,875 329 294 1920
2021-11-28 18:32:28 GMT 51.930744 -0.499093 20,950 329 294 1920
2021-11-28 18:32:26 GMT 51.927521 -0.495834 20,825 329 293 1856
2021-11-28 18:32:24 GMT 51.926228 -0.494542 20,800 329 293 1856
2021-11-28 18:32:21 GMT 51.922348 -0.490646 20,700 329 291 1792
2021-11-28 18:32:19 GMT 51.918686 -0.486984 20,575 329 291 1792
2021-11-28 18:32:16 GMT 51.916035 -0.484340 20,525 329 291 1792
2021-11-28 18:32:14 GMT 51.913193 -0.481437 20,375 329 288 1856
2021-11-28 18:32:11 GMT 51.908676 -0.476885 20,375 329 288 1856
2021-11-28 18:32:09 GMT 51.908676 -0.476885 20,325 329 288 1920
2021-11-28 18:32:07 GMT 51.906967 -0.475159 20,300 328 288 1984
2021-11-28 18:32:05 GMT 51.904255 -0.472412 20,150 328 288 2048
2021-11-28 18:32:02 GMT 51.900997 -0.469116 20,100 328 287 2112
2021-11-28 18:32:00 GMT 51.898315 -0.466385 19,825 328 287 2304
2021-11-28 18:31:58 GMT 51.894150 -0.462189 19,900 328 286 2368
2021-11-28 18:31:56 GMT 51.894150 -0.462189 19,875 328 286 2368
2021-11-28 18:31:54 GMT 51.891357 -0.459347 19,725 328 286 2368
2021-11-28 18:31:51 GMT 51.888107 -0.456081 19,650 329 286 2240
2021-11-28 18:31:49 GMT 51.885868 -0.453796 19,575 329 285 2176
2021-11-28 18:31:47 GMT 51.883392 -0.451330 19,250 329 285 2112
2021-11-28 18:31:44 GMT 51.877075 -0.445169 19,350 330 283 1984
2021-11-28 18:31:41 GMT 51.877075 -0.445169 19,350 331 282 1920
2021-11-28 18:31:39 GMT 51.875290 -0.443462 19,225 332 280 1856
2021-11-28 18:31:37 GMT 51.871857 -0.440521 19,175 335 278 1856
2021-11-28 18:31:34 GMT 51.867992 -0.437698 19,125 338 276 1728
2021-11-28 18:31:31 GMT 51.864548 -0.435715 18,975 345 272 1280
2021-11-28 18:31:28 GMT 51.860916 -0.434108 18,925 349 271 1024
2021-11-28 18:31:25 GMT 51.857574 -0.432995 18,900 352 269 896
2021-11-28 18:31:23 GMT 51.855240 -0.432475 18,900 353 270 960
2021-11-28 18:31:20 GMT 51.852024 -0.431976 18,825 357 269 1216
2021-11-28 18:31:18 GMT 51.849789 -0.431824 18,750 1 268 1472
2021-11-28 18:31:15 GMT 51.845322 -0.431900 18,625 5 267 1664
2021-11-28 18:31:12 GMT 51.841782 -0.432434 18,625 7 267 1664
2021-11-28 18:31:09 GMT 51.838570 -0.433197 18,550 10 268 1664
2021-11-28 18:31:07 GMT 51.834824 -0.434480 18,450 15 269 1728
2021-11-28 18:31:04 GMT 51.832443 -0.435519 18,375 17 270 1728
2021-11-28 18:31:01 GMT 51.828644 -0.437523 18,300 21 272 1792
2021-11-28 18:30:59 GMT 51.826141 -0.439072 18,250 23 274 1792
2021-11-28 18:30:57 GMT 51.822922 -0.441383 18,150 29 280 1920
2021-11-28 18:30:54 GMT 51.818573 -0.445095 18,075 30 281 1920
2021-11-28 18:30:52 GMT 51.818573 -0.445095 17,975 30 282 1984
2021-11-28 18:30:49 GMT 51.815014 -0.448532 17,925 32 288 2304
2021-11-28 18:30:47 GMT 51.809101 -0.454483 17,825 31 289 2496
2021-11-28 18:30:44 GMT 51.809101 -0.454483 17,700 31 291 2688
2021-11-28 18:30:41 GMT 51.805565 -0.457993 17,550 31 295 3008
2021-11-28 18:30:39 GMT 51.803238 -0.460281 17,450 31 295 3200
2021-11-28 18:30:37 GMT 51.801498 -0.462020 17,375 31 296 3328
2021-11-28 18:30:34 GMT 51.798443 -0.465088 17,175 31 299 3648
2021-11-28 18:30:32 GMT 51.794533 -0.468903 17,050 31 300 3712
2021-11-28 18:30:29 GMT 51.789551 -0.473748 16,850 30 301 3712
2021-11-28 18:30:27 GMT 51.789551 -0.473748 16,775 30 301 3712
2021-11-28 18:30:25 GMT 51.787766 -0.475456 16,550 30 303 3776
2021-11-28 18:30:23 GMT 51.784897 -0.478210 16,550 30 303 3712
2021-11-28 18:30:20 GMT 51.781635 -0.481339 16,325 30 304 3776
2021-11-28 18:30:18 GMT 51.778564 -0.484161 16,225 30 305 4032
2021-11-28 18:30:16 GMT 51.776505 -0.486145 16,075 30 305 4032
2021-11-28 18:30:13 GMT 51.772606 -0.489731 15,900 29 306 4032
2021-11-28 18:30:11 GMT 51.770737 -0.491490 15,775 29 307 3968
2021-11-28 18:30:09 GMT 51.764690 -0.497055 15,550 29 309 3648
2021-11-28 18:30:07 GMT 51.764690 -0.497055 15,350 29 309 3456
2021-11-28 18:30:04 GMT 51.761063 -0.500336 15,300 29 310 3328
2021-11-28 18:30:01 GMT 51.757801 -0.503235 15,175 29 311 3200
2021-11-28 18:29:58 GMT 51.750641 -0.509751 14,950 29 311 3008
2021-11-28 18:29:56 GMT 51.750641 -0.509751 14,850 29 311 2944
2021-11-28 18:29:53 GMT 51.746395 -0.513535 14,700 28 310 3008
2021-11-28 18:29:50 GMT 51.743637 -0.515986 14,625 28 310 3136
2021-11-28 18:29:48 GMT 51.741852 -0.517545 14,450 28 310 3200
2021-11-28 18:29:46 GMT 51.738064 -0.520935 14,375 28 311 3328
2021-11-28 18:29:43 GMT 51.735458 -0.523224 14,300 28 310 3264
2021-11-28 18:29:41 GMT 51.733036 -0.525284 14,150 28 310 3072
2021-11-28 18:29:39 GMT 51.730133 -0.527863 13,950 28 310 3200
2021-11-28 18:29:37 GMT 51.726845 -0.530701 13,850 28 310 3584
2021-11-28 18:29:34 GMT 51.723446 -0.533676 13,725 28 310 3456
2021-11-28 18:29:31 GMT 51.719490 -0.537033 13,550 28 313 3136
2021-11-28 18:29:28 GMT 51.716217 -0.539889 13,425 28 314 2880
2021-11-28 18:29:26 GMT 51.710770 -0.544566 13,275 27 317 2624
2021-11-28 18:29:24 GMT 51.710770 -0.544566 13,225 27 318 2688
2021-11-28 18:29:22 GMT 51.709339 -0.545731 13,150 27 318 2752
2021-11-28 18:29:20 GMT 51.705803 -0.548706 13,050 27 320 3072
2021-11-28 18:29:18 GMT 51.703152 -0.550842 12,975 26 322 3200
2021-11-28 18:29:16 GMT 51.697563 -0.555344 12,775 26 321 3392
2021-11-28 18:29:14 GMT 51.693466 -0.558701 12,650 26 321 3072
2021-11-28 18:29:11 GMT 51.693466 -0.558701 12,550 26 321 3008
2021-11-28 18:29:09 GMT 51.690674 -0.560897 12,450 26 321 2944
2021-11-28 18:29:07 GMT 51.684387 -0.565872 12,300 26 320 2880
2021-11-28 18:29:04 GMT 51.684387 -0.565872 12,225 26 320 2752
2021-11-28 18:29:02 GMT 51.681362 -0.568314 12,125 26 318 2624
2021-11-28 18:28:59 GMT 51.677547 -0.571365 12,000 26 317 2944
2021-11-28 18:28:57 GMT 51.674881 -0.573442 11,800 26 316 2944
2021-11-28 18:28:54 GMT 51.670704 -0.576782 11,750 26 316 2880
2021-11-28 18:28:52 GMT 51.668976 -0.578118 11,725 26 316 2880
2021-11-28 18:28:50 GMT 51.666096 -0.580368 11,600 26 315 2880
2021-11-28 18:28:48 GMT 51.663486 -0.582428 11,500 26 314 2880
2021-11-28 18:28:46 GMT 51.660599 -0.584725 11,350 26 313 2944
2021-11-28 18:28:43 GMT 51.656738 -0.587845 11,200 26 312 3008
2021-11-28 18:28:40 GMT 51.652828 -0.590897 11,100 26 311 3008
2021-11-28 18:28:38 GMT 51.650116 -0.593113 10,975 26 311 3072
2021-11-28 18:28:36 GMT 51.647186 -0.595489 10,300 26 309 3264
2021-11-28 18:28:33 GMT 51.639095 -0.601959 10,725 26 310 3136
2021-11-28 18:28:31 GMT 51.639095 -0.601959 10,525 26 309 3136
2021-11-28 18:28:28 GMT 51.637436 -0.603283 10,250 26 309 3264
2021-11-28 18:28:26 GMT 51.635513 -0.604842 10,400 26 309 3264
2021-11-28 18:28:24 GMT 51.631691 -0.607910 10,225 26 309 3264
2021-11-28 18:28:22 GMT 51.630524 -0.608850 10,150 26 309 3200
2021-11-28 18:28:20 GMT 51.627224 -0.611572 10,025 26 309 3136
2021-11-28 18:28:18 GMT 51.624523 -0.613708 9,925 26 308 3008
2021-11-28 18:28:16 GMT 51.621231 -0.616348 9,875 26 307 3008
2021-11-28 18:28:13 GMT 51.617912 -0.619049 9,725 26 306 2816
2021-11-28 18:28:10 GMT 51.612854 -0.623177 9,500 26 306 2880
2021-11-28 18:28:06 GMT 51.605717 -0.629044 9,225 26 304 2944
2021-11-28 18:28:03 GMT 51.605717 -0.629044 9,125 27 303 3008
2021-11-28 18:28:01 GMT 51.603195 -0.631046 9,100 27 303 3008
2021-11-28 18:27:58 GMT 51.600082 -0.633621 8,950 27 301 3072
2021-11-28 18:27:56 GMT 51.597477 -0.635757 8,900 27 301 3072
2021-11-28 18:27:54 GMT 51.594868 -0.637970 8,750 27 301 3072
2021-11-28 18:27:52 GMT 51.591797 -0.640488 8,625 27 300 3072
2021-11-28 18:27:50 GMT 51.589188 -0.642626 8,525 27 299 3008
2021-11-28 18:27:48 GMT 51.587234 -0.644302 8,450 27 299 2944
2021-11-28 18:27:46 GMT 51.584766 -0.646362 8,350 27 298 3008
2021-11-28 18:27:43 GMT 51.580715 -0.649719 8,075 27 297 3072
2021-11-28 18:27:40 GMT 51.576324 -0.653390 7,900 27 296 3008
2021-11-28 18:27:37 GMT 51.573643 -0.655594 7,875 27 295 2880
2021-11-28 18:27:35 GMT 51.571594 -0.657272 7,825 26 295 2816
2021-11-28 18:27:32 GMT 51.568176 -0.660070 7,475 25 291 2560
2021-11-28 18:27:30 GMT 51.565029 -0.662613 7,475 25 291 2560
2021-11-28 18:27:27 GMT 51.561172 -0.665564 7,425 23 288 2368
2021-11-28 18:27:25 GMT 51.558701 -0.667345 7,325 23 287 2304
2021-11-28 18:27:23 GMT 51.556870 -0.668607 7,275 22 286 2112
2021-11-28 18:27:21 GMT 51.554947 -0.669869 7,225 19 284 1984
2021-11-28 18:27:19 GMT 51.551834 -0.671576 7,150 14 279 1792
2021-11-28 18:27:17 GMT 51.548950 -0.672764 7,125 12 277 1792
2021-11-28 18:27:15 GMT 51.545929 -0.673581 6,625 5 272 1792
2021-11-28 18:27:12 GMT 51.543823 -0.673952 6,975 3 270 1792
2021-11-28 18:27:10 GMT 51.540684 -0.674133 6,900 356 264 1920
2021-11-28 18:27:08 GMT 51.537888 -0.674057 6,725 350 260 1920
2021-11-28 18:27:05 GMT 51.534988 -0.673432 6,750 350 260 1920
2021-11-28 18:27:03 GMT 51.531933 -0.672455 6,675 344 256 2112
2021-11-28 18:27:01 GMT 51.526157 -0.669250 6,575 342 255 2240
2021-11-28 18:26:58 GMT 51.524715 -0.668106 6,425 333 250 2880
2021-11-28 18:26:56 GMT 51.524715 -0.668106 6,400 331 248 3008
2021-11-28 18:26:53 GMT 51.522156 -0.665894 6,275 329 249 3072
2021-11-28 18:26:51 GMT 51.519699 -0.663188 6,075 322 247 3712
2021-11-28 18:26:48 GMT 51.516521 -0.659027 5,825 313 249 3648
2021-11-28 18:26:45 GMT 51.514435 -0.655542 3,725 300 250 3776
2021-11-28 18:26:42 GMT 51.512512 -0.651608 5,550 304 250 3520
2021-11-28 18:26:40 GMT 51.511307 -0.648651 5,475 302 250 3584
2021-11-28 18:26:38 GMT 51.509766 -0.644556 5,325 299 250 3840
2021-11-28 18:26:36 GMT 51.508514 -0.640945 5,200 299 250 3840
2021-11-28 18:26:34 GMT 51.507385 -0.637578 4,900 299 249 4096
2021-11-28 18:26:31 GMT 51.505489 -0.631866 4,800 299 249 4288
2021-11-28 18:26:28 GMT 51.504227 -0.628077 4,450 299 250 4544
2021-11-28 18:26:25 GMT 51.503082 -0.624662 4,475 299 250 4544
2021-11-28 18:26:23 GMT 51.500137 -0.615997 4,125 299 251 4608
2021-11-28 18:26:20 GMT 51.500137 -0.615997 3,950 300 252 4352
2021-11-28 18:26:17 GMT 51.497437 -0.608292 3,775 300 253 4160
2021-11-28 18:26:15 GMT 51.497437 -0.608292 3,725 300 253 3968
2021-11-28 18:26:12 GMT 51.495117 -0.601798 3,400 300 252 3520
2021-11-28 18:26:09 GMT 51.493469 -0.597048 3,300 301 251 3328
2021-11-28 18:26:06 GMT 51.491684 -0.592222 3,125 300 250 3008
2021-11-28 18:26:02 GMT 51.489521 -0.586166 2,950 300 246 2624
2021-11-28 18:26:00 GMT 51.488449 -0.583115 2,875 300 246 2624
2021-11-28 18:25:58 GMT 51.487335 -0.579910 2,750 298 241 2176
2021-11-28 18:25:55 GMT 51.485916 -0.575817 2,675 298 239 2048
2021-11-28 18:25:52 GMT 51.483891 -0.569534 2,550 297 234 1728
2021-11-28 18:25:49 GMT 51.482941 -0.566464 2,450 296 231 1536
2021-11-28 18:25:46 GMT 51.481327 -0.560837 2,400 294 226 1280
2021-11-28 18:25:40 GMT 51.479095 -0.552521 2,300 290 217 960
2021-11-28 18:25:38 GMT 51.478348 -0.549011 2,250 280 209 1088
2021-11-28 18:25:36 GMT 51.477695 -0.544281 2,200 279 208 1024
2021-11-28 18:25:31 GMT 51.477280 -0.538330 2,025 270 187 1216
2021-11-28 18:25:28 GMT 51.477219 -0.534173 2,025 270 196 1280
2021-11-28 18:25:25 GMT 51.477264 -0.529645 2,000 270 194 1280
2021-11-28 18:25:24 GMT 51.477280 -0.528107 2,000 270 192 1280
2021-11-28 18:25:22 GMT 51.477280 -0.525665 1,975 270 191 1216
2021-11-28 18:25:21 GMT 51.477264 -0.521999 1,925 270 187 1216
2021-11-28 18:25:19 GMT 51.477280 -0.520782 1,900 270 185 1152
2021-11-28 18:25:18 GMT 51.477310 -0.517991 1,850 270 182 1088
2021-11-28 18:25:16 GMT 51.477310 -0.516654 1,850 270 181 1024
2021-11-28 18:25:15 GMT 51.477325 -0.515442 1,825 270 179 960
2021-11-28 18:25:14 GMT 51.477310 -0.512794 1,800 270 176 832
2021-11-28 18:25:12 GMT 51.477325 -0.511627 1,800 270 174 832
2021-11-28 18:25:10 GMT 51.477325 -0.508423 1,775 270 173 896
2021-11-28 18:25:08 GMT 51.477356 -0.506485 1,725 270 168 1024
2021-11-28 18:25:06 GMT 51.477356 -0.503664 1,700 270 166 1088
2021-11-28 18:25:05 GMT 51.477356 -0.502402 1,675 270 164 1088
2021-11-28 18:25:03 GMT 51.477371 -0.500870 1,650 270 161 1152
2021-11-28 18:25:01 GMT 51.477371 -0.498810 1,625 270 159 1088
2021-11-28 18:25:00 GMT 51.477356 -0.497280 1,600 270 156 1088
2021-11-28 18:24:58 GMT 51.477371 -0.494995 1,575 270 154 1088
2021-11-28 18:24:57 GMT 51.477371 -0.494080 1,575 270 153 1152
2021-11-28 18:24:56 GMT 51.477417 -0.492935 1,525 270 151 1472
2021-11-28 18:24:54 GMT 51.477402 -0.490673 1,475 269 149 1920
2021-11-28 18:24:53 GMT 51.477448 -0.489114 1,450 269 149 2176
2021-11-28 18:24:52 GMT 51.477467 -0.488052 1,350 269 148 2496
2021-11-28 18:24:50 GMT 51.477467 -0.485535 1,300 270 148 2496
2021-11-28 18:24:48 GMT 51.477512 -0.484390 1,250 270 148 2496
2021-11-28 18:24:47 GMT 51.477493 -0.483250 1,200 270 148 2496
2021-11-28 18:24:46 GMT 51.477512 -0.481033 1,100 270 149 2496
2021-11-28 18:24:44 GMT 51.477539 -0.480058 1,050 270 149 2560
2021-11-28 18:24:43 GMT 51.477558 -0.478821 1,025 270 149 2496
2021-11-28 18:24:41 GMT 51.477558 -0.476685 925 270 149 2304
2021-11-28 18:24:40 GMT 51.477558 -0.475159 875 270 149 2176
2021-11-28 18:24:39 GMT 51.477604 -0.473099 825 270 148 1984
2021-11-28 18:24:37 GMT 51.477585 -0.472115 750 270 149 2368
2021-11-28 18:24:36 GMT 51.477585 -0.471002 725 270 147 1984
2021-11-28 18:24:35 GMT 51.477604 -0.468826 650 270 146 2112
2021-11-28 18:24:33 GMT 51.477604 -0.467758 625 270 146 2304
2021-11-28 18:24:31 GMT 51.477631 -0.465583 525 270 146 2560
2021-11-28 18:24:30 GMT 51.477604 -0.464630 475 270 147 2624
2021-11-28 18:24:28 GMT 51.477650 -0.462341 375 270 149 2368
2021-11-28 18:24:27 GMT 51.477650 -0.461273 375 270 149 2240
2021-11-28 18:24:24 GMT 51.477631 -0.457937 275 270 150 1408
2021-11-28 18:24:22 GMT 51.477631 -0.455265 225 270 140 128
2021-11-28 18:24:20 GMT 51.477631 -0.453260 250 270 140 128
2021-11-28 18:24:19 GMT 51.477631 -0.451479 250 270 134 64
2021-11-28 18:24:17 GMT 51.477631 -0.450365 250 270 130 64
2021-11-28 18:24:16 GMT 51.477631 -0.449400 250 270 127 64
2021-11-28 18:24:11 GMT 51.477676 -0.445169 250 270 108 64
2021-11-28 18:24:05 GMT 51.477673 -0.440483 0 270 84
2021-11-28 18:24:02 GMT 51.477688 -0.438995 0 270 70
2021-11-28 18:23:56 GMT 51.477695 -0.436249 0 270 42
2021-11-28 18:23:55 GMT 51.477695 -0.435829 0 270 38
2021-11-28 18:23:53 GMT 51.477688 -0.435296 0 270 28
2021-11-28 18:23:51 GMT 51.477688 -0.434999 0 270 19
2021-11-28 18:23:43 GMT 51.477688 -0.434313 0 272 6
2021-11-28 18:23:35 GMT 51.477711 -0.434055 0 292 4
2021-11-28 18:23:33 GMT 51.477711 -0.433998 0 300 4
2021-11-28 18:23:31 GMT 51.477699 -0.433941 0 306 4
2021-11-28 18:23:29 GMT 51.477695 -0.433903 0 312 4
2021-11-28 18:23:28 GMT 51.477688 -0.433867 0 317 4
2021-11-28 18:23:24 GMT 51.477654 -0.433793 0 329 4
2021-11-28 18:23:20 GMT 51.477604 -0.433712 0 340 4
2021-11-28 18:23:13 GMT 51.477451 -0.433598 0 0 4
2021-11-28 18:23:00 GMT 51.477207 -0.433617 0 22 5
2021-11-28 18:22:51 GMT 51.476978 -0.433756 0 42 6
2021-11-28 18:22:36 GMT 51.476742 -0.434189 0 59 6
2021-11-28 18:22:35 GMT 51.476719 -0.434246 0 56 7
2021-11-28 18:22:30 GMT 51.476646 -0.434442 0 53 7
2021-11-28 18:22:26 GMT 51.476582 -0.434589 0 53 7
2021-11-28 18:22:18 GMT 51.476429 -0.434906 0 50 7
2021-11-28 18:22:14 GMT 51.476299 -0.435143 0 47 7
2021-11-28 18:22:06 GMT 51.476162 -0.435371 0 50 6
2021-11-28 18:22:03 GMT 51.476097 -0.435482 0 59 5
2021-11-28 18:21:58 GMT 51.476051 -0.435593 0 64 4
2021-11-28 18:21:57 GMT 51.476032 -0.435600 0 67 3
2021-11-28 18:21:55 GMT 51.476021 -0.435638 0 70 3
2021-11-28 18:21:53 GMT 51.476009 -0.435696 0 73 3
2021-11-28 18:21:52 GMT 51.475998 -0.435715 0 73 4
2021-11-28 18:21:50 GMT 51.475994 -0.435742 0 75 4
2021-11-28 18:21:49 GMT 51.475983 -0.435760 0 75 4
2021-11-28 18:21:47 GMT 51.475971 -0.435834 0 78 5
2021-11-28 18:21:41 GMT 51.475941 -0.436039 0 87 7
2021-11-28 18:21:39 GMT 51.475937 -0.436187 0 90 8
2021-11-28 18:21:34 GMT 51.475937 -0.436410 0 90 9
2021-11-28 18:21:33 GMT 51.475937 -0.436521 0 90 9
2021-11-28 18:21:32 GMT 51.475937 -0.436577 0 90 10
2021-11-28 18:21:31 GMT 51.475937 -0.436651 0 90 10
2021-11-28 18:21:23 GMT 51.475937 -0.437282 0 87 14
2021-11-28 18:21:18 GMT 51.475929 -0.437775 0 90 13
2021-11-28 18:21:14 GMT 51.475925 -0.438228 0 90 16
2021-11-28 18:21:13 GMT 51.475929 -0.438328 0 90 16
2021-11-28 18:20:51 GMT 51.475925 -0.441272 0 90 19
2021-11-28 18:20:50 GMT 51.475925 -0.441346 0 90 19
2021-11-28 18:20:48 GMT 51.475925 -0.441736 0 90 18
2021-11-28 18:20:47 GMT 51.475971 -0.442794 0 95 16
2021-11-28 18:20:39 GMT 51.475975 -0.443020 0 92 17
2021-11-28 18:20:37 GMT 51.475975 -0.443020 0 92 17
2021-11-28 18:20:35 GMT 51.475986 -0.443287 0 92 19
2021-11-28 18:20:34 GMT 51.475998 -0.443420 0 92 21
2021-11-28 18:20:33 GMT 51.476006 -0.443554 0 90 22
2021-11-28 18:20:31 GMT 51.476009 -0.443916 0 90 24
2021-11-28 18:20:29 GMT 51.475998 -0.444164 0 90 26
2021-11-28 18:20:26 GMT 51.476006 -0.444835 0 90 27
2021-11-28 18:20:22 GMT 51.475998 -0.445690 0 90 26
2021-11-28 18:20:21 GMT 51.475998 -0.445843 0 90 26
2021-11-28 18:20:19 GMT 51.475994 -0.446227 0 90 26
2021-11-28 18:20:10 GMT 51.475983 -0.447971 0 90 25
2021-11-28 18:20:07 GMT 51.475986 -0.448341 0 90 26
2021-11-28 18:20:03 GMT 51.475983 -0.449140 0 90 26
2021-11-28 18:19:58 GMT 51.475986 -0.450668 0 90 24
2021-11-28 18:19:55 GMT 51.475986 -0.450668 0 90 24
2021-11-28 18:19:50 GMT 51.475975 -0.451603 0 90 23
2021-11-28 18:19:45 GMT 51.475975 -0.452442 0 90 26
2021-11-28 18:19:43 GMT 51.475964 -0.453033 0 90 27
2021-11-28 18:19:32 GMT 51.475971 -0.455023 0 90 26
2021-11-28 18:19:31 GMT 51.475971 -0.455227 0 90 26
2021-11-28 18:19:14 GMT 51.475964 -0.458221 0 90 23
2021-11-28 18:19:07 GMT 51.475948 -0.459292 0 90 21
2021-11-28 18:19:06 GMT 51.475948 -0.459477 0 90 21
2021-11-28 18:19:01 GMT 51.475952 -0.460148 0 90 19
2021-11-28 18:18:53 GMT 51.475948 -0.461296 0 90 18
2021-11-28 18:18:40 GMT 51.475937 -0.463152 0 87 24
2021-11-28 18:18:34 GMT 51.475929 -0.464153 0 90 23
2021-11-28 18:18:32 GMT 51.475929 -0.464516 0 90 22
2021-11-28 18:18:30 GMT 51.475929 -0.464878 0 90 22
2021-11-28 18:18:29 GMT 51.475929 -0.465107 0 90 21
2021-11-28 18:18:27 GMT 51.475925 -0.465379 0 90 21
2021-11-28 18:18:26 GMT 51.475925 -0.465713 0 90 21
2021-11-28 18:18:24 GMT 51.475929 -0.465870 0 90 21
2021-11-28 18:18:23 GMT 51.475929 -0.466022 0 90 20
2021-11-28 18:18:21 GMT 51.475925 -0.466362 0 87 20
2021-11-28 18:18:19 GMT 51.475918 -0.467300 0 87 26
2021-11-28 18:18:14 GMT 51.475918 -0.467300 0 87 26
2021-11-28 18:18:11 GMT 51.475906 -0.467930 0 87 26
2021-11-28 18:18:09 GMT 51.475891 -0.468348 0 84 26
2021-11-28 18:18:07 GMT 51.475868 -0.468636 0 87 26
2021-11-28 18:18:06 GMT 51.475868 -0.468812 0 87 25
2021-11-28 18:18:04 GMT 51.475861 -0.469170 0 87 25
2021-11-28 18:18:03 GMT 51.475845 -0.469322 0 87 25
2021-11-28 18:18:02 GMT 51.475834 -0.469721 0 87 24
2021-11-28 18:17:58 GMT 51.475834 -0.470241 0 90 22
2021-11-28 18:17:53 GMT 51.475834 -0.471169 0 90 22
2021-11-28 18:17:51 GMT 51.475834 -0.471466 0 90 22
2021-11-28 18:17:50 GMT 51.475834 -0.471781 0 90 21
2021-11-28 18:17:45 GMT 51.475834 -0.472338 0 90 21
2021-11-28 18:17:44 GMT 51.475834 -0.472505 0 90 22
2021-11-28 18:17:43 GMT 51.475822 -0.472839 0 90 24
2021-11-28 18:17:39 GMT 51.475822 -0.473366 0 90 25
2021-11-28 18:17:36 GMT 51.475822 -0.473934 0 90 26
2021-11-28 18:17:35 GMT 51.475834 -0.474138 0 90 26
2021-11-28 18:17:32 GMT 51.475834 -0.474602 0 90 26
2021-11-28 18:17:31 GMT 51.475822 -0.475426 0 90 25
2021-11-28 18:17:28 GMT 51.475822 -0.475790 0 90 25
2021-11-28 18:17:21 GMT 51.475811 -0.476810 0 90 24
2021-11-28 18:17:13 GMT 51.475811 -0.477887 0 90 22
2021-11-28 18:17:11 GMT 51.475800 -0.478406 0 90 22
2021-11-28 18:17:07 GMT 51.475800 -0.478926 0 90 21
2021-11-28 18:17:05 GMT 51.475800 -0.479317 0 90 21
2021-11-28 18:17:02 GMT 51.475800 -0.479679 0 90 20
2021-11-28 18:16:59 GMT 51.475800 -0.480118 0 90 19
2021-11-28 18:16:58 GMT 51.475800 -0.480244 0 90 19
2021-11-28 18:16:56 GMT 51.475800 -0.480633 0 90 18
2021-11-28 18:16:53 GMT 51.475800 -0.480957 0 90 18
2021-11-28 18:16:52 GMT 51.475800 -0.481148 0 90 18
2021-11-28 18:16:49 GMT 51.475800 -0.481413 0 90 17
2021-11-28 18:16:43 GMT 51.475800 -0.482192 0 90 16
2021-11-28 18:16:41 GMT 51.475800 -0.482426 0 90 15
2021-11-28 18:16:40 GMT 51.475788 -0.482600 0 90 15
2021-11-28 18:16:38 GMT 51.475788 -0.482712 0 90 15
2021-11-28 18:16:36 GMT 51.475788 -0.482979 0 90 14
2021-11-28 18:16:35 GMT 51.475788 -0.483176 0 90 14
2021-11-28 18:16:29 GMT 51.475777 -0.483565 0 90 13
2021-11-28 18:16:27 GMT 51.475788 -0.483788 0 87 13
2021-11-28 18:16:25 GMT 51.475788 -0.483971 0 81 13
2021-11-28 18:16:23 GMT 51.475777 -0.484219 0 64 12
2021-11-28 18:16:22 GMT 51.475765 -0.484289 0 59 12
2021-11-28 18:16:20 GMT 51.475719 -0.484447 0 42 11
2021-11-28 18:16:19 GMT 51.475685 -0.484512 0 36 11
2021-11-28 18:16:17 GMT 51.475636 -0.484600 0 25 10
2021-11-28 18:16:15 GMT 51.475544 -0.484695 0 14 10
2021-11-28 18:16:13 GMT 51.475464 -0.484753 0 8 10
2021-11-28 18:16:12 GMT 51.475422 -0.484753 0 8 10
2021-11-28 18:16:09 GMT 51.475288 -0.484772 0 16 10
2021-11-28 18:16:07 GMT 51.475208 -0.484791 0 28 9
2021-11-28 18:16:05 GMT 51.475147 -0.484829 0 33 9
2021-11-28 18:16:04 GMT 51.475113 -0.484846 0 36 9
2021-11-28 18:16:02 GMT 51.475033 -0.484920 0 53 8
2021-11-28 18:15:56 GMT 51.474907 -0.485199 0 78 9
2021-11-28 18:15:55 GMT 51.474884 -0.485403 0 87 11
2021-11-28 18:15:53 GMT 51.474884 -0.485403 0 87 11
2021-11-28 18:15:51 GMT 51.474873 -0.485514 0 87 11
2021-11-28 18:15:48 GMT 51.474869 -0.485764 0 90 12
2021-11-28 18:15:43 GMT 51.474873 -0.486201 0 90 11
2021-11-28 18:15:33 GMT 51.474869 -0.486889 0 90 8
2021-11-28 18:15:22 GMT 51.474873 -0.487351 0 90 5
2021-11-28 18:12:42 GMT 51.474880 -0.487728 0 90 0
2021-11-28 18:12:26 GMT 51.474903 -0.487709 0 90 0
2021-11-28 18:12:24 GMT 51.474907 -0.487722 0 90 0
2021-11-28 18:12:23 GMT 51.474895 -0.487722 0 90 0
2021-11-28 18:12:21 GMT 51.474895 -0.487722 0 90 0
2021-11-28 18:12:19 GMT 51.474892 -0.487709 0 90 0
2021-11-28 18:12:17 GMT 51.474895 -0.487704 0 90 0
2021-11-28 18:12:09 GMT 51.474892 -0.487709 0 90 0
2021-11-28 18:12:06 GMT 51.474895 -0.487704 0 90 0
2021-11-28 18:12:02 GMT 51.474892 -0.487709 0 90 0
2021-11-28 18:11:50 GMT 51.474873 -0.487574 0 98 2
2021-11-28 18:11:44 GMT 51.474827 -0.487518 0 115 3
2021-11-28 18:11:34 GMT 51.474724 -0.487500 0 149 3
2021-11-28 18:11:31 GMT 51.474682 -0.487499 0 157 3
2021-11-28 18:11:27 GMT 51.474636 -0.487518 0 165 3
2021-11-28 18:11:25 GMT 51.474625 -0.487518 0 171 3
2021-11-28 18:11:22 GMT 51.474590 -0.487537 0 174 3
2021-11-28 18:11:19 GMT 51.474564 -0.487537 0 177 3
2021-11-28 18:11:18 GMT 51.474556 -0.487537 0 177 3
2021-11-28 18:11:17 GMT 51.474541 -0.487537 0 177 3
2021-11-28 18:11:15 GMT 51.474529 -0.487555 0 180 3
2021-11-28 18:11:12 GMT 51.474495 -0.487555 0 180 3
2021-11-28 18:11:11 GMT 51.474476 -0.487556 0 182 3
2021-11-28 18:11:10 GMT 51.474472 -0.487555 0 182 3
2021-11-28 18:11:07 GMT 51.474438 -0.487555 0 182 3
2021-11-28 18:11:04 GMT 51.474392 -0.487556 0 182 3
2021-11-28 18:10:57 GMT 51.474323 -0.487556 0 180 3
2021-11-28 18:10:54 GMT 51.474285 -0.487556 0 180 3
2021-11-28 18:10:53 GMT 51.474277 -0.487556 0 180 3
2021-11-28 18:10:49 GMT 51.474243 -0.487555 0 180 3
2021-11-28 18:10:45 GMT 51.474194 -0.487556 0 180 3
2021-11-28 18:10:40 GMT 51.474136 -0.487556 0 180 3
2021-11-28 18:10:39 GMT 51.474125 -0.487556 0 180 3
2021-11-28 18:10:37 GMT 51.474106 -0.487555 0 180 3
2021-11-28 18:10:33 GMT 51.474060 -0.487555 0 180 3
2021-11-28 18:10:23 GMT 51.473934 -0.487555 0 180 2
2021-11-28 18:10:22 GMT 51.473927 -0.487556 0 180 2
2021-11-28 18:10:19 GMT 51.473915 -0.487556 0 180 0
2021-11-28 18:10:15 GMT 51.473881 -0.487556 0 180 0
2021-11-28 18:10:10 GMT 51.473888 -0.487574 0 180 0

Making use of Plane Finder data

You are free to use the raw flight data, aircraft information and images provided in this report for your own purposes provided the data is correctly attributed to Plane Finder. We ask that you please credit Plane Finder and link to planefinder.net in close proximity to the content.

Optionally one of the following logos (no smaller then 150x24px) can be used and must link to planefinder.net

Embedding the Plane Finder map

You are welcome to embed the Plane Finder playback map on your website to offer visitors a more interactive experience. We suggest using the following HTML code:

<iframe src="//planefinder.net/data/report/BA1420-G-MIDT-7700-squawk-2021-11-28/map" width="800" height="600" seamless="seamless"></iframe>

Where our data comes from

Plane Finder has a global network of data feeds and antenna radars that receive data broadcast directly from aircraft. The primary technologies used are ADS-B and MLAT. We also show feeds from the FAA and a FLARM glider feed.

Click here to find out more about the Plane Finder network.

How we collect our data